<?xml version="1.0" encoding="UTF-8" standalone="no" ?>
<gpx xmlns="http://www.topografix.com/GPX/1/1" xmlns:xsi="http://www.w3.org/2001/XMLSchema-instance" xsi:schemaLocation="http://www.topografix.com/GPX/1/1 http://www.topografix.com/GPX/1/1/gpx.xsd" version="1.1" creator="VisuGPX - https://www.visugpx.com">
  <metadata>
    <name>Lac d'Oô (Val d'Astau)</name>
    <desc><![CDATA[Rando pédestre au départ de Les Granges d'Astau.
La météo est incertaine, on se contente de la montée bien agréable jusqu'au Lac d'Oo, puis le ciel s'assombrit, adieu le refuge d’Espingo.
]]></desc>
  </metadata>
  <trk>
    <name><![CDATA[Lac d'Oô]]></name>
    <trkseg>
      <trkpt lat="42.76429" lon="0.50166">
        <ele>1141.59</ele>
        <time>2020-08-29T07:20:41Z</time>
      </trkpt>
      <trkpt lat="42.76424" lon="0.50166">
        <ele>1142.19</ele>
        <time>2020-08-29T07:20:59Z</time>
      </trkpt>
      <trkpt lat="42.76418" lon="0.50166">
        <ele>1143.14</ele>
        <time>2020-08-29T07:21:04Z</time>
      </trkpt>
      <trkpt lat="42.76417" lon="0.50166">
        <ele>1142.6</ele>
        <time>2020-08-29T07:21:05Z</time>
      </trkpt>
      <trkpt lat="42.76414" lon="0.50165">
        <ele>1142.61</ele>
        <time>2020-08-29T07:21:07Z</time>
      </trkpt>
      <trkpt lat="42.76404" lon="0.50168">
        <ele>1142.51</ele>
        <time>2020-08-29T07:21:16Z</time>
      </trkpt>
      <trkpt lat="42.76389" lon="0.50177">
        <ele>1145.27</ele>
        <time>2020-08-29T07:21:32Z</time>
      </trkpt>
      <trkpt lat="42.76375" lon="0.50182">
        <ele>1147.08</ele>
        <time>2020-08-29T07:21:48Z</time>
      </trkpt>
      <trkpt lat="42.76373" lon="0.50185">
        <ele>1147.55</ele>
        <time>2020-08-29T07:21:51Z</time>
      </trkpt>
      <trkpt lat="42.76371" lon="0.50191">
        <ele>1147.89</ele>
        <time>2020-08-29T07:21:55Z</time>
      </trkpt>
      <trkpt lat="42.76361" lon="0.50195">
        <ele>1149.25</ele>
        <time>2020-08-29T07:22:08Z</time>
      </trkpt>
      <trkpt lat="42.76348" lon="0.50194">
        <ele>1150.6</ele>
        <time>2020-08-29T07:22:20Z</time>
      </trkpt>
      <trkpt lat="42.7633" lon="0.50191">
        <ele>1152.3</ele>
        <time>2020-08-29T07:22:37Z</time>
      </trkpt>
      <trkpt lat="42.76314" lon="0.50189">
        <ele>1153.97</ele>
        <time>2020-08-29T07:22:54Z</time>
      </trkpt>
      <trkpt lat="42.763" lon="0.50185">
        <ele>1155.58</ele>
        <time>2020-08-29T07:23:09Z</time>
      </trkpt>
      <trkpt lat="42.76291" lon="0.50184">
        <ele>1156.55</ele>
        <time>2020-08-29T07:23:19Z</time>
      </trkpt>
      <trkpt lat="42.76285" lon="0.50182">
        <ele>1157.16</ele>
        <time>2020-08-29T07:23:26Z</time>
      </trkpt>
      <trkpt lat="42.7627" lon="0.50172">
        <ele>1158.24</ele>
        <time>2020-08-29T07:23:42Z</time>
      </trkpt>
      <trkpt lat="42.76252" lon="0.50165">
        <ele>1160.51</ele>
        <time>2020-08-29T07:24:02Z</time>
      </trkpt>
      <trkpt lat="42.7625" lon="0.50163">
        <ele>1160.94</ele>
        <time>2020-08-29T07:24:21Z</time>
      </trkpt>
      <trkpt lat="42.76249" lon="0.50165">
        <ele>1161.12</ele>
        <time>2020-08-29T07:24:42Z</time>
      </trkpt>
      <trkpt lat="42.76248" lon="0.50168">
        <ele>1161.16</ele>
        <time>2020-08-29T07:24:48Z</time>
      </trkpt>
      <trkpt lat="42.76246" lon="0.50167">
        <ele>1161.33</ele>
        <time>2020-08-29T07:24:50Z</time>
      </trkpt>
      <trkpt lat="42.76242" lon="0.50168">
        <ele>1161.68</ele>
        <time>2020-08-29T07:24:54Z</time>
      </trkpt>
      <trkpt lat="42.76226" lon="0.50166">
        <ele>1163.73</ele>
        <time>2020-08-29T07:25:11Z</time>
      </trkpt>
      <trkpt lat="42.76211" lon="0.50165">
        <ele>1165.5</ele>
        <time>2020-08-29T07:25:26Z</time>
      </trkpt>
      <trkpt lat="42.76192" lon="0.50167">
        <ele>1167.01</ele>
        <time>2020-08-29T07:25:45Z</time>
      </trkpt>
      <trkpt lat="42.76173" lon="0.50169">
        <ele>1169.03</ele>
        <time>2020-08-29T07:26:04Z</time>
      </trkpt>
      <trkpt lat="42.76156" lon="0.50178">
        <ele>1170.91</ele>
        <time>2020-08-29T07:26:22Z</time>
      </trkpt>
      <trkpt lat="42.76135" lon="0.50195">
        <ele>1172.41</ele>
        <time>2020-08-29T07:26:46Z</time>
      </trkpt>
      <trkpt lat="42.76127" lon="0.5019">
        <ele>1173.21</ele>
        <time>2020-08-29T07:26:54Z</time>
      </trkpt>
      <trkpt lat="42.76126" lon="0.50187">
        <ele>1173.07</ele>
        <time>2020-08-29T07:26:56Z</time>
      </trkpt>
      <trkpt lat="42.76116" lon="0.5018">
        <ele>1173.74</ele>
        <time>2020-08-29T07:27:06Z</time>
      </trkpt>
      <trkpt lat="42.76092" lon="0.50178">
        <ele>1175.27</ele>
        <time>2020-08-29T07:27:29Z</time>
      </trkpt>
      <trkpt lat="42.76071" lon="0.5018">
        <ele>1176.09</ele>
        <time>2020-08-29T07:27:48Z</time>
      </trkpt>
      <trkpt lat="42.76052" lon="0.50185">
        <ele>1177.7</ele>
        <time>2020-08-29T07:28:07Z</time>
      </trkpt>
      <trkpt lat="42.76033" lon="0.50203">
        <ele>1178.72</ele>
        <time>2020-08-29T07:28:27Z</time>
      </trkpt>
      <trkpt lat="42.76014" lon="0.50207">
        <ele>1179.9</ele>
        <time>2020-08-29T07:28:46Z</time>
      </trkpt>
      <trkpt lat="42.76009" lon="0.50209">
        <ele>1180.36</ele>
        <time>2020-08-29T07:28:51Z</time>
      </trkpt>
      <trkpt lat="42.76006" lon="0.5021">
        <ele>1180.63</ele>
        <time>2020-08-29T07:28:54Z</time>
      </trkpt>
      <trkpt lat="42.75992" lon="0.50222">
        <ele>1182.41</ele>
        <time>2020-08-29T07:29:11Z</time>
      </trkpt>
      <trkpt lat="42.75981" lon="0.50238">
        <ele>1183.84</ele>
        <time>2020-08-29T07:29:28Z</time>
      </trkpt>
      <trkpt lat="42.75969" lon="0.50251">
        <ele>1185.78</ele>
        <time>2020-08-29T07:29:46Z</time>
      </trkpt>
      <trkpt lat="42.7596" lon="0.50257">
        <ele>1186.32</ele>
        <time>2020-08-29T07:29:56Z</time>
      </trkpt>
      <trkpt lat="42.7595" lon="0.50265">
        <ele>1186.97</ele>
        <time>2020-08-29T07:30:09Z</time>
      </trkpt>
      <trkpt lat="42.75941" lon="0.50266">
        <ele>1187.61</ele>
        <time>2020-08-29T07:30:18Z</time>
      </trkpt>
      <trkpt lat="42.75934" lon="0.50263">
        <ele>1188.59</ele>
        <time>2020-08-29T07:30:26Z</time>
      </trkpt>
      <trkpt lat="42.75919" lon="0.5025">
        <ele>1190.27</ele>
        <time>2020-08-29T07:30:43Z</time>
      </trkpt>
      <trkpt lat="42.75916" lon="0.50248">
        <ele>1190.72</ele>
        <time>2020-08-29T07:30:46Z</time>
      </trkpt>
      <trkpt lat="42.75909" lon="0.50245">
        <ele>1191.8</ele>
        <time>2020-08-29T07:30:54Z</time>
      </trkpt>
      <trkpt lat="42.75905" lon="0.50244">
        <ele>1192.31</ele>
        <time>2020-08-29T07:31:00Z</time>
      </trkpt>
      <trkpt lat="42.75901" lon="0.50244">
        <ele>1192.56</ele>
        <time>2020-08-29T07:31:04Z</time>
      </trkpt>
      <trkpt lat="42.75886" lon="0.50246">
        <ele>1195.02</ele>
        <time>2020-08-29T07:31:21Z</time>
      </trkpt>
      <trkpt lat="42.75885" lon="0.50247">
        <ele>1195.05</ele>
        <time>2020-08-29T07:31:26Z</time>
      </trkpt>
      <trkpt lat="42.75883" lon="0.50247">
        <ele>1195.09</ele>
        <time>2020-08-29T07:31:28Z</time>
      </trkpt>
      <trkpt lat="42.75864" lon="0.50249">
        <ele>1197.55</ele>
        <time>2020-08-29T07:31:47Z</time>
      </trkpt>
      <trkpt lat="42.75845" lon="0.50244">
        <ele>1200.03</ele>
        <time>2020-08-29T07:32:07Z</time>
      </trkpt>
      <trkpt lat="42.75827" lon="0.50241">
        <ele>1202.77</ele>
        <time>2020-08-29T07:32:26Z</time>
      </trkpt>
      <trkpt lat="42.75814" lon="0.50236">
        <ele>1204.58</ele>
        <time>2020-08-29T07:32:42Z</time>
      </trkpt>
      <trkpt lat="42.75802" lon="0.50236">
        <ele>1206.56</ele>
        <time>2020-08-29T07:32:57Z</time>
      </trkpt>
      <trkpt lat="42.75786" lon="0.50229">
        <ele>1209.07</ele>
        <time>2020-08-29T07:33:18Z</time>
      </trkpt>
      <trkpt lat="42.75773" lon="0.50221">
        <ele>1211.07</ele>
        <time>2020-08-29T07:33:34Z</time>
      </trkpt>
      <trkpt lat="42.75761" lon="0.50216">
        <ele>1213.06</ele>
        <time>2020-08-29T07:33:48Z</time>
      </trkpt>
      <trkpt lat="42.7575" lon="0.50216">
        <ele>1215.05</ele>
        <time>2020-08-29T07:34:01Z</time>
      </trkpt>
      <trkpt lat="42.75742" lon="0.50213">
        <ele>1216.23</ele>
        <time>2020-08-29T07:34:10Z</time>
      </trkpt>
      <trkpt lat="42.75734" lon="0.502">
        <ele>1218.11</ele>
        <time>2020-08-29T07:34:24Z</time>
      </trkpt>
      <trkpt lat="42.75726" lon="0.50189">
        <ele>1220.33</ele>
        <time>2020-08-29T07:34:38Z</time>
      </trkpt>
      <trkpt lat="42.75715" lon="0.50173">
        <ele>1222.56</ele>
        <time>2020-08-29T07:34:55Z</time>
      </trkpt>
      <trkpt lat="42.75705" lon="0.50161">
        <ele>1224.3</ele>
        <time>2020-08-29T07:35:12Z</time>
      </trkpt>
      <trkpt lat="42.75695" lon="0.50151">
        <ele>1226.51</ele>
        <time>2020-08-29T07:35:28Z</time>
      </trkpt>
      <trkpt lat="42.75677" lon="0.50146">
        <ele>1228.95</ele>
        <time>2020-08-29T07:35:48Z</time>
      </trkpt>
      <trkpt lat="42.75666" lon="0.50139">
        <ele>1230.94</ele>
        <time>2020-08-29T07:36:04Z</time>
      </trkpt>
      <trkpt lat="42.75653" lon="0.50128">
        <ele>1232.88</ele>
        <time>2020-08-29T07:36:20Z</time>
      </trkpt>
      <trkpt lat="42.7564" lon="0.50115">
        <ele>1235.45</ele>
        <time>2020-08-29T07:36:37Z</time>
      </trkpt>
      <trkpt lat="42.75629" lon="0.50106">
        <ele>1238.36</ele>
        <time>2020-08-29T07:36:55Z</time>
      </trkpt>
      <trkpt lat="42.75619" lon="0.50086">
        <ele>1241.26</ele>
        <time>2020-08-29T07:37:14Z</time>
      </trkpt>
      <trkpt lat="42.75618" lon="0.50081">
        <ele>1241.8</ele>
        <time>2020-08-29T07:37:18Z</time>
      </trkpt>
      <trkpt lat="42.75616" lon="0.50064">
        <ele>1243.72</ele>
        <time>2020-08-29T07:37:35Z</time>
      </trkpt>
      <trkpt lat="42.75606" lon="0.50052">
        <ele>1245.69</ele>
        <time>2020-08-29T07:37:53Z</time>
      </trkpt>
      <trkpt lat="42.75594" lon="0.50038">
        <ele>1248.22</ele>
        <time>2020-08-29T07:38:13Z</time>
      </trkpt>
      <trkpt lat="42.75581" lon="0.50018">
        <ele>1251.02</ele>
        <time>2020-08-29T07:38:34Z</time>
      </trkpt>
      <trkpt lat="42.75569" lon="0.50003">
        <ele>1253.62</ele>
        <time>2020-08-29T07:38:52Z</time>
      </trkpt>
      <trkpt lat="42.75567" lon="0.50001">
        <ele>1254.19</ele>
        <time>2020-08-29T07:38:55Z</time>
      </trkpt>
      <trkpt lat="42.75554" lon="0.49991">
        <ele>1256.16</ele>
        <time>2020-08-29T07:39:13Z</time>
      </trkpt>
      <trkpt lat="42.75538" lon="0.49983">
        <ele>1258.88</ele>
        <time>2020-08-29T07:39:33Z</time>
      </trkpt>
      <trkpt lat="42.7553" lon="0.49978">
        <ele>1259.94</ele>
        <time>2020-08-29T07:39:48Z</time>
      </trkpt>
      <trkpt lat="42.75525" lon="0.49974">
        <ele>1260.29</ele>
        <time>2020-08-29T07:39:59Z</time>
      </trkpt>
      <trkpt lat="42.75515" lon="0.49969">
        <ele>1261.83</ele>
        <time>2020-08-29T07:40:14Z</time>
      </trkpt>
      <trkpt lat="42.75507" lon="0.49964">
        <ele>1263.18</ele>
        <time>2020-08-29T07:40:28Z</time>
      </trkpt>
      <trkpt lat="42.75493" lon="0.49956">
        <ele>1265.57</ele>
        <time>2020-08-29T07:40:47Z</time>
      </trkpt>
      <trkpt lat="42.75484" lon="0.49954">
        <ele>1267.3</ele>
        <time>2020-08-29T07:41:06Z</time>
      </trkpt>
      <trkpt lat="42.7548" lon="0.49954">
        <ele>1266.39</ele>
        <time>2020-08-29T07:41:28Z</time>
      </trkpt>
      <trkpt lat="42.7548" lon="0.4996">
        <ele>1266.85</ele>
        <time>2020-08-29T07:41:52Z</time>
      </trkpt>
      <trkpt lat="42.75478" lon="0.49956">
        <ele>1267.15</ele>
        <time>2020-08-29T07:42:01Z</time>
      </trkpt>
      <trkpt lat="42.75478" lon="0.49954">
        <ele>1267.7</ele>
        <time>2020-08-29T07:42:15Z</time>
      </trkpt>
      <trkpt lat="42.75466" lon="0.49952">
        <ele>1269.3</ele>
        <time>2020-08-29T07:42:32Z</time>
      </trkpt>
      <trkpt lat="42.75452" lon="0.49954">
        <ele>1271.88</ele>
        <time>2020-08-29T07:42:51Z</time>
      </trkpt>
      <trkpt lat="42.75438" lon="0.49957">
        <ele>1274.4</ele>
        <time>2020-08-29T07:43:09Z</time>
      </trkpt>
      <trkpt lat="42.75418" lon="0.49956">
        <ele>1276.91</ele>
        <time>2020-08-29T07:43:28Z</time>
      </trkpt>
      <trkpt lat="42.75413" lon="0.49958">
        <ele>1278.05</ele>
        <time>2020-08-29T07:43:37Z</time>
      </trkpt>
      <trkpt lat="42.75401" lon="0.49964">
        <ele>1279.52</ele>
        <time>2020-08-29T07:43:57Z</time>
      </trkpt>
      <trkpt lat="42.754" lon="0.49961">
        <ele>1279.54</ele>
        <time>2020-08-29T07:44:01Z</time>
      </trkpt>
      <trkpt lat="42.75394" lon="0.49955">
        <ele>1280.03</ele>
        <time>2020-08-29T07:44:21Z</time>
      </trkpt>
      <trkpt lat="42.75394" lon="0.49961">
        <ele>1280</ele>
        <time>2020-08-29T07:44:30Z</time>
      </trkpt>
      <trkpt lat="42.75396" lon="0.4997">
        <ele>1279.94</ele>
        <time>2020-08-29T07:44:55Z</time>
      </trkpt>
      <trkpt lat="42.75395" lon="0.49972">
        <ele>1278.59</ele>
        <time>2020-08-29T07:45:21Z</time>
      </trkpt>
      <trkpt lat="42.75392" lon="0.4998">
        <ele>1281.44</ele>
        <time>2020-08-29T07:45:46Z</time>
      </trkpt>
      <trkpt lat="42.75391" lon="0.49983">
        <ele>1280.69</ele>
        <time>2020-08-29T07:45:50Z</time>
      </trkpt>
      <trkpt lat="42.75388" lon="0.49981">
        <ele>1280</ele>
        <time>2020-08-29T07:46:15Z</time>
      </trkpt>
      <trkpt lat="42.75382" lon="0.49969">
        <ele>1281.53</ele>
        <time>2020-08-29T07:46:34Z</time>
      </trkpt>
      <trkpt lat="42.75379" lon="0.49962">
        <ele>1281.39</ele>
        <time>2020-08-29T07:46:44Z</time>
      </trkpt>
      <trkpt lat="42.7538" lon="0.49968">
        <ele>1281.54</ele>
        <time>2020-08-29T07:46:59Z</time>
      </trkpt>
      <trkpt lat="42.75378" lon="0.49964">
        <ele>1281.37</ele>
        <time>2020-08-29T07:47:17Z</time>
      </trkpt>
      <trkpt lat="42.75379" lon="0.49962">
        <ele>1281.81</ele>
        <time>2020-08-29T07:47:37Z</time>
      </trkpt>
      <trkpt lat="42.7538" lon="0.49963">
        <ele>1281.44</ele>
        <time>2020-08-29T07:47:39Z</time>
      </trkpt>
      <trkpt lat="42.75363" lon="0.4996">
        <ele>1284.18</ele>
        <time>2020-08-29T07:47:58Z</time>
      </trkpt>
      <trkpt lat="42.75341" lon="0.49962">
        <ele>1286.46</ele>
        <time>2020-08-29T07:48:17Z</time>
      </trkpt>
      <trkpt lat="42.75325" lon="0.49949">
        <ele>1289.36</ele>
        <time>2020-08-29T07:48:36Z</time>
      </trkpt>
      <trkpt lat="42.75322" lon="0.4993">
        <ele>1290.91</ele>
        <time>2020-08-29T07:48:47Z</time>
      </trkpt>
      <trkpt lat="42.75304" lon="0.49903">
        <ele>1293.31</ele>
        <time>2020-08-29T07:49:08Z</time>
      </trkpt>
      <trkpt lat="42.75289" lon="0.49886">
        <ele>1295.26</ele>
        <time>2020-08-29T07:49:23Z</time>
      </trkpt>
      <trkpt lat="42.7528" lon="0.49884">
        <ele>1297.22</ele>
        <time>2020-08-29T07:49:37Z</time>
      </trkpt>
      <trkpt lat="42.75267" lon="0.49877">
        <ele>1299.1</ele>
        <time>2020-08-29T07:49:55Z</time>
      </trkpt>
      <trkpt lat="42.75255" lon="0.49865">
        <ele>1300.43</ele>
        <time>2020-08-29T07:50:13Z</time>
      </trkpt>
      <trkpt lat="42.75243" lon="0.49847">
        <ele>1303.27</ele>
        <time>2020-08-29T07:50:30Z</time>
      </trkpt>
      <trkpt lat="42.75228" lon="0.49833">
        <ele>1305.64</ele>
        <time>2020-08-29T07:50:50Z</time>
      </trkpt>
      <trkpt lat="42.75217" lon="0.49818">
        <ele>1308.12</ele>
        <time>2020-08-29T07:51:08Z</time>
      </trkpt>
      <trkpt lat="42.75212" lon="0.498">
        <ele>1310.97</ele>
        <time>2020-08-29T07:51:28Z</time>
      </trkpt>
      <trkpt lat="42.752" lon="0.49787">
        <ele>1313.8</ele>
        <time>2020-08-29T07:51:48Z</time>
      </trkpt>
      <trkpt lat="42.75187" lon="0.49768">
        <ele>1316.21</ele>
        <time>2020-08-29T07:52:08Z</time>
      </trkpt>
      <trkpt lat="42.75177" lon="0.49744">
        <ele>1318.82</ele>
        <time>2020-08-29T07:52:27Z</time>
      </trkpt>
      <trkpt lat="42.75176" lon="0.49738">
        <ele>1319.13</ele>
        <time>2020-08-29T07:52:44Z</time>
      </trkpt>
      <trkpt lat="42.75175" lon="0.49731">
        <ele>1319.6</ele>
        <time>2020-08-29T07:53:04Z</time>
      </trkpt>
      <trkpt lat="42.75172" lon="0.49715">
        <ele>1321.86</ele>
        <time>2020-08-29T07:53:20Z</time>
      </trkpt>
      <trkpt lat="42.75166" lon="0.49701">
        <ele>1324.91</ele>
        <time>2020-08-29T07:53:36Z</time>
      </trkpt>
      <trkpt lat="42.75164" lon="0.49689">
        <ele>1327.17</ele>
        <time>2020-08-29T07:53:49Z</time>
      </trkpt>
      <trkpt lat="42.75159" lon="0.49673">
        <ele>1330.49</ele>
        <time>2020-08-29T07:54:04Z</time>
      </trkpt>
      <trkpt lat="42.75152" lon="0.49657">
        <ele>1332.95</ele>
        <time>2020-08-29T07:54:21Z</time>
      </trkpt>
      <trkpt lat="42.75146" lon="0.49648">
        <ele>1333.77</ele>
        <time>2020-08-29T07:54:34Z</time>
      </trkpt>
      <trkpt lat="42.75146" lon="0.49645">
        <ele>1334.05</ele>
        <time>2020-08-29T07:54:56Z</time>
      </trkpt>
      <trkpt lat="42.75146" lon="0.49645">
        <ele>1333.43</ele>
        <time>2020-08-29T07:55:19Z</time>
      </trkpt>
      <trkpt lat="42.75146" lon="0.49645">
        <ele>1333.79</ele>
        <time>2020-08-29T07:55:46Z</time>
      </trkpt>
      <trkpt lat="42.75145" lon="0.49645">
        <ele>1334.01</ele>
        <time>2020-08-29T07:55:48Z</time>
      </trkpt>
      <trkpt lat="42.75143" lon="0.49644">
        <ele>1333.24</ele>
        <time>2020-08-29T07:56:14Z</time>
      </trkpt>
      <trkpt lat="42.75145" lon="0.49637">
        <ele>1333.1</ele>
        <time>2020-08-29T07:56:45Z</time>
      </trkpt>
      <trkpt lat="42.75144" lon="0.49638">
        <ele>1333.13</ele>
        <time>2020-08-29T07:57:30Z</time>
      </trkpt>
      <trkpt lat="42.75148" lon="0.49641">
        <ele>1333.21</ele>
        <time>2020-08-29T07:58:07Z</time>
      </trkpt>
      <trkpt lat="42.75148" lon="0.49641">
        <ele>1333.24</ele>
        <time>2020-08-29T07:58:39Z</time>
      </trkpt>
      <trkpt lat="42.75146" lon="0.4964">
        <ele>1334.22</ele>
        <time>2020-08-29T07:59:08Z</time>
      </trkpt>
      <trkpt lat="42.75145" lon="0.4964">
        <ele>1334.97</ele>
        <time>2020-08-29T07:59:16Z</time>
      </trkpt>
      <trkpt lat="42.75145" lon="0.49642">
        <ele>1334.73</ele>
        <time>2020-08-29T07:59:35Z</time>
      </trkpt>
      <trkpt lat="42.75146" lon="0.49646">
        <ele>1334.4</ele>
        <time>2020-08-29T07:59:54Z</time>
      </trkpt>
      <trkpt lat="42.75147" lon="0.49663">
        <ele>1334.73</ele>
        <time>2020-08-29T08:00:06Z</time>
      </trkpt>
      <trkpt lat="42.75149" lon="0.49678">
        <ele>1337.64</ele>
        <time>2020-08-29T08:00:20Z</time>
      </trkpt>
      <trkpt lat="42.75149" lon="0.49686">
        <ele>1338.49</ele>
        <time>2020-08-29T08:00:24Z</time>
      </trkpt>
      <trkpt lat="42.75151" lon="0.49694">
        <ele>1339.2</ele>
        <time>2020-08-29T08:00:29Z</time>
      </trkpt>
      <trkpt lat="42.75147" lon="0.49705">
        <ele>1340.97</ele>
        <time>2020-08-29T08:00:41Z</time>
      </trkpt>
      <trkpt lat="42.75142" lon="0.49694">
        <ele>1343.49</ele>
        <time>2020-08-29T08:00:54Z</time>
      </trkpt>
      <trkpt lat="42.75139" lon="0.49686">
        <ele>1344.39</ele>
        <time>2020-08-29T08:01:01Z</time>
      </trkpt>
      <trkpt lat="42.75131" lon="0.4967">
        <ele>1346.55</ele>
        <time>2020-08-29T08:01:15Z</time>
      </trkpt>
      <trkpt lat="42.75117" lon="0.49658">
        <ele>1349.32</ele>
        <time>2020-08-29T08:01:33Z</time>
      </trkpt>
      <trkpt lat="42.75121" lon="0.49681">
        <ele>1352.35</ele>
        <time>2020-08-29T08:01:52Z</time>
      </trkpt>
      <trkpt lat="42.75121" lon="0.49684">
        <ele>1352.57</ele>
        <time>2020-08-29T08:01:54Z</time>
      </trkpt>
      <trkpt lat="42.75124" lon="0.4969">
        <ele>1353.21</ele>
        <time>2020-08-29T08:01:59Z</time>
      </trkpt>
      <trkpt lat="42.75125" lon="0.49695">
        <ele>1353.58</ele>
        <time>2020-08-29T08:02:02Z</time>
      </trkpt>
      <trkpt lat="42.75127" lon="0.49709">
        <ele>1354.68</ele>
        <time>2020-08-29T08:02:12Z</time>
      </trkpt>
      <trkpt lat="42.75126" lon="0.49712">
        <ele>1355.29</ele>
        <time>2020-08-29T08:02:15Z</time>
      </trkpt>
      <trkpt lat="42.75118" lon="0.49707">
        <ele>1357.32</ele>
        <time>2020-08-29T08:02:26Z</time>
      </trkpt>
      <trkpt lat="42.75113" lon="0.49692">
        <ele>1359.88</ele>
        <time>2020-08-29T08:02:41Z</time>
      </trkpt>
      <trkpt lat="42.75105" lon="0.49678">
        <ele>1361.69</ele>
        <time>2020-08-29T08:02:53Z</time>
      </trkpt>
      <trkpt lat="42.75098" lon="0.4967">
        <ele>1362.97</ele>
        <time>2020-08-29T08:03:01Z</time>
      </trkpt>
      <trkpt lat="42.75096" lon="0.49681">
        <ele>1365.92</ele>
        <time>2020-08-29T08:03:16Z</time>
      </trkpt>
      <trkpt lat="42.751" lon="0.49697">
        <ele>1368.49</ele>
        <time>2020-08-29T08:03:30Z</time>
      </trkpt>
      <trkpt lat="42.75101" lon="0.49703">
        <ele>1369.34</ele>
        <time>2020-08-29T08:03:35Z</time>
      </trkpt>
      <trkpt lat="42.75099" lon="0.49713">
        <ele>1370.74</ele>
        <time>2020-08-29T08:03:44Z</time>
      </trkpt>
      <trkpt lat="42.75092" lon="0.4971">
        <ele>1373.02</ele>
        <time>2020-08-29T08:03:55Z</time>
      </trkpt>
      <trkpt lat="42.75089" lon="0.497">
        <ele>1375.06</ele>
        <time>2020-08-29T08:04:04Z</time>
      </trkpt>
      <trkpt lat="42.75082" lon="0.49687">
        <ele>1377.04</ele>
        <time>2020-08-29T08:04:18Z</time>
      </trkpt>
      <trkpt lat="42.75068" lon="0.49677">
        <ele>1380.06</ele>
        <time>2020-08-29T08:04:37Z</time>
      </trkpt>
      <trkpt lat="42.75051" lon="0.49669">
        <ele>1383.29</ele>
        <time>2020-08-29T08:04:56Z</time>
      </trkpt>
      <trkpt lat="42.7505" lon="0.49668">
        <ele>1383.59</ele>
        <time>2020-08-29T08:04:58Z</time>
      </trkpt>
      <trkpt lat="42.75045" lon="0.49644">
        <ele>1386.82</ele>
        <time>2020-08-29T08:05:15Z</time>
      </trkpt>
      <trkpt lat="42.75045" lon="0.49622">
        <ele>1389.97</ele>
        <time>2020-08-29T08:05:34Z</time>
      </trkpt>
      <trkpt lat="42.75048" lon="0.49601">
        <ele>1392.19</ele>
        <time>2020-08-29T08:05:49Z</time>
      </trkpt>
      <trkpt lat="42.75063" lon="0.49585">
        <ele>1394.62</ele>
        <time>2020-08-29T08:06:05Z</time>
      </trkpt>
      <trkpt lat="42.75071" lon="0.49579">
        <ele>1395.12</ele>
        <time>2020-08-29T08:06:13Z</time>
      </trkpt>
      <trkpt lat="42.75082" lon="0.49566">
        <ele>1396.99</ele>
        <time>2020-08-29T08:06:25Z</time>
      </trkpt>
      <trkpt lat="42.75086" lon="0.49547">
        <ele>1400.13</ele>
        <time>2020-08-29T08:06:42Z</time>
      </trkpt>
      <trkpt lat="42.75087" lon="0.49533">
        <ele>1402.9</ele>
        <time>2020-08-29T08:06:56Z</time>
      </trkpt>
      <trkpt lat="42.7509" lon="0.4953">
        <ele>1404.06</ele>
        <time>2020-08-29T08:07:01Z</time>
      </trkpt>
      <trkpt lat="42.75087" lon="0.49519">
        <ele>1407.46</ele>
        <time>2020-08-29T08:07:18Z</time>
      </trkpt>
      <trkpt lat="42.75073" lon="0.4952">
        <ele>1409.62</ele>
        <time>2020-08-29T08:07:36Z</time>
      </trkpt>
      <trkpt lat="42.75063" lon="0.49512">
        <ele>1412.91</ele>
        <time>2020-08-29T08:07:55Z</time>
      </trkpt>
      <trkpt lat="42.7506" lon="0.49497">
        <ele>1416.03</ele>
        <time>2020-08-29T08:08:12Z</time>
      </trkpt>
      <trkpt lat="42.7506" lon="0.49493">
        <ele>1417</ele>
        <time>2020-08-29T08:08:17Z</time>
      </trkpt>
      <trkpt lat="42.75067" lon="0.49477">
        <ele>1420.18</ele>
        <time>2020-08-29T08:08:36Z</time>
      </trkpt>
      <trkpt lat="42.7507" lon="0.49469">
        <ele>1421.36</ele>
        <time>2020-08-29T08:08:44Z</time>
      </trkpt>
      <trkpt lat="42.75061" lon="0.49469">
        <ele>1423.77</ele>
        <time>2020-08-29T08:09:02Z</time>
      </trkpt>
      <trkpt lat="42.7505" lon="0.49482">
        <ele>1426.42</ele>
        <time>2020-08-29T08:09:21Z</time>
      </trkpt>
      <trkpt lat="42.75039" lon="0.49495">
        <ele>1429.49</ele>
        <time>2020-08-29T08:09:40Z</time>
      </trkpt>
      <trkpt lat="42.75024" lon="0.49506">
        <ele>1431.72</ele>
        <time>2020-08-29T08:10:01Z</time>
      </trkpt>
      <trkpt lat="42.75011" lon="0.49507">
        <ele>1434.79</ele>
        <time>2020-08-29T08:10:21Z</time>
      </trkpt>
      <trkpt lat="42.75011" lon="0.49497">
        <ele>1437.88</ele>
        <time>2020-08-29T08:10:38Z</time>
      </trkpt>
      <trkpt lat="42.75002" lon="0.49493">
        <ele>1440.95</ele>
        <time>2020-08-29T08:10:54Z</time>
      </trkpt>
      <trkpt lat="42.75001" lon="0.49476">
        <ele>1443.47</ele>
        <time>2020-08-29T08:11:13Z</time>
      </trkpt>
      <trkpt lat="42.74999" lon="0.49459">
        <ele>1445.6</ele>
        <time>2020-08-29T08:11:31Z</time>
      </trkpt>
      <trkpt lat="42.74989" lon="0.49465">
        <ele>1448.24</ele>
        <time>2020-08-29T08:11:52Z</time>
      </trkpt>
      <trkpt lat="42.74985" lon="0.49482">
        <ele>1450.2</ele>
        <time>2020-08-29T08:12:08Z</time>
      </trkpt>
      <trkpt lat="42.74979" lon="0.49496">
        <ele>1451.21</ele>
        <time>2020-08-29T08:12:29Z</time>
      </trkpt>
      <trkpt lat="42.74978" lon="0.49505">
        <ele>1451.96</ele>
        <time>2020-08-29T08:12:51Z</time>
      </trkpt>
      <trkpt lat="42.74978" lon="0.49511">
        <ele>1452.6</ele>
        <time>2020-08-29T08:13:00Z</time>
      </trkpt>
      <trkpt lat="42.74974" lon="0.49523">
        <ele>1455.11</ele>
        <time>2020-08-29T08:13:17Z</time>
      </trkpt>
      <trkpt lat="42.74972" lon="0.49512">
        <ele>1457.7</ele>
        <time>2020-08-29T08:13:34Z</time>
      </trkpt>
      <trkpt lat="42.74967" lon="0.49496">
        <ele>1458.65</ele>
        <time>2020-08-29T08:13:51Z</time>
      </trkpt>
      <trkpt lat="42.74965" lon="0.49514">
        <ele>1461.31</ele>
        <time>2020-08-29T08:14:10Z</time>
      </trkpt>
      <trkpt lat="42.7496" lon="0.49529">
        <ele>1464.36</ele>
        <time>2020-08-29T08:14:31Z</time>
      </trkpt>
      <trkpt lat="42.74955" lon="0.49518">
        <ele>1467.09</ele>
        <time>2020-08-29T08:14:49Z</time>
      </trkpt>
      <trkpt lat="42.74958" lon="0.49501">
        <ele>1469.51</ele>
        <time>2020-08-29T08:15:08Z</time>
      </trkpt>
      <trkpt lat="42.74961" lon="0.4948">
        <ele>1472.33</ele>
        <time>2020-08-29T08:15:26Z</time>
      </trkpt>
      <trkpt lat="42.74959" lon="0.49477">
        <ele>1473.9</ele>
        <time>2020-08-29T08:15:45Z</time>
      </trkpt>
      <trkpt lat="42.74953" lon="0.49496">
        <ele>1477.01</ele>
        <time>2020-08-29T08:16:03Z</time>
      </trkpt>
      <trkpt lat="42.74951" lon="0.49499">
        <ele>1477.53</ele>
        <time>2020-08-29T08:16:07Z</time>
      </trkpt>
      <trkpt lat="42.74947" lon="0.49499">
        <ele>1479.02</ele>
        <time>2020-08-29T08:16:22Z</time>
      </trkpt>
      <trkpt lat="42.74944" lon="0.49496">
        <ele>1479.5</ele>
        <time>2020-08-29T08:16:26Z</time>
      </trkpt>
      <trkpt lat="42.74939" lon="0.49476">
        <ele>1482.65</ele>
        <time>2020-08-29T08:16:46Z</time>
      </trkpt>
      <trkpt lat="42.74937" lon="0.49466">
        <ele>1483.65</ele>
        <time>2020-08-29T08:16:56Z</time>
      </trkpt>
      <trkpt lat="42.74941" lon="0.49451">
        <ele>1485.39</ele>
        <time>2020-08-29T08:17:13Z</time>
      </trkpt>
      <trkpt lat="42.74936" lon="0.49445">
        <ele>1487.65</ele>
        <time>2020-08-29T08:17:34Z</time>
      </trkpt>
      <trkpt lat="42.74931" lon="0.49457">
        <ele>1490.27</ele>
        <time>2020-08-29T08:17:56Z</time>
      </trkpt>
      <trkpt lat="42.74926" lon="0.49442">
        <ele>1492.82</ele>
        <time>2020-08-29T08:18:16Z</time>
      </trkpt>
      <trkpt lat="42.74926" lon="0.4944">
        <ele>1493.1</ele>
        <time>2020-08-29T08:18:20Z</time>
      </trkpt>
      <trkpt lat="42.74926" lon="0.49436">
        <ele>1493.36</ele>
        <time>2020-08-29T08:18:24Z</time>
      </trkpt>
      <trkpt lat="42.74928" lon="0.49434">
        <ele>1493.82</ele>
        <time>2020-08-29T08:18:27Z</time>
      </trkpt>
      <trkpt lat="42.74922" lon="0.49414">
        <ele>1496.07</ele>
        <time>2020-08-29T08:18:50Z</time>
      </trkpt>
      <trkpt lat="42.74913" lon="0.49406">
        <ele>1497.15</ele>
        <time>2020-08-29T08:19:05Z</time>
      </trkpt>
      <trkpt lat="42.74904" lon="0.49401">
        <ele>1497.54</ele>
        <time>2020-08-29T08:19:18Z</time>
      </trkpt>
      <trkpt lat="42.74893" lon="0.49373">
        <ele>1498.81</ele>
        <time>2020-08-29T08:19:38Z</time>
      </trkpt>
      <trkpt lat="42.74883" lon="0.49355">
        <ele>1499.54</ele>
        <time>2020-08-29T08:19:58Z</time>
      </trkpt>
      <trkpt lat="42.74876" lon="0.49347">
        <ele>1498.24</ele>
        <time>2020-08-29T08:20:19Z</time>
      </trkpt>
      <trkpt lat="42.74874" lon="0.49344">
        <ele>1497.95</ele>
        <time>2020-08-29T08:20:23Z</time>
      </trkpt>
      <trkpt lat="42.74868" lon="0.49338">
        <ele>1496.86</ele>
        <time>2020-08-29T08:20:37Z</time>
      </trkpt>
      <trkpt lat="42.74867" lon="0.49333">
        <ele>1496.26</ele>
        <time>2020-08-29T08:20:43Z</time>
      </trkpt>
      <trkpt lat="42.74857" lon="0.4932">
        <ele>1493.9</ele>
        <time>2020-08-29T08:21:03Z</time>
      </trkpt>
      <trkpt lat="42.74847" lon="0.49309">
        <ele>1491.63</ele>
        <time>2020-08-29T08:21:21Z</time>
      </trkpt>
      <trkpt lat="42.74843" lon="0.49305">
        <ele>1490.87</ele>
        <time>2020-08-29T08:21:28Z</time>
      </trkpt>
      <trkpt lat="42.74839" lon="0.49301">
        <ele>1490.26</ele>
        <time>2020-08-29T08:21:38Z</time>
      </trkpt>
      <trkpt lat="42.74833" lon="0.49294">
        <ele>1489.86</ele>
        <time>2020-08-29T08:21:44Z</time>
      </trkpt>
      <trkpt lat="42.74818" lon="0.49268">
        <ele>1489.07</ele>
        <time>2020-08-29T08:22:06Z</time>
      </trkpt>
      <trkpt lat="42.74814" lon="0.49264">
        <ele>1488.71</ele>
        <time>2020-08-29T08:22:11Z</time>
      </trkpt>
      <trkpt lat="42.74813" lon="0.49262">
        <ele>1488.47</ele>
        <time>2020-08-29T08:22:17Z</time>
      </trkpt>
      <trkpt lat="42.748" lon="0.49238">
        <ele>1488.52</ele>
        <time>2020-08-29T08:22:38Z</time>
      </trkpt>
      <trkpt lat="42.74798" lon="0.49235">
        <ele>1488.81</ele>
        <time>2020-08-29T08:22:40Z</time>
      </trkpt>
      <trkpt lat="42.74788" lon="0.49224">
        <ele>1491.12</ele>
        <time>2020-08-29T08:23:00Z</time>
      </trkpt>
      <trkpt lat="42.74777" lon="0.49218">
        <ele>1494.07</ele>
        <time>2020-08-29T08:23:20Z</time>
      </trkpt>
      <trkpt lat="42.74776" lon="0.49219">
        <ele>1494.85</ele>
        <time>2020-08-29T08:23:22Z</time>
      </trkpt>
      <trkpt lat="42.74763" lon="0.49213">
        <ele>1496.76</ele>
        <time>2020-08-29T08:23:43Z</time>
      </trkpt>
      <trkpt lat="42.74756" lon="0.49207">
        <ele>1499.22</ele>
        <time>2020-08-29T08:24:01Z</time>
      </trkpt>
      <trkpt lat="42.74752" lon="0.49204">
        <ele>1499.82</ele>
        <time>2020-08-29T08:24:06Z</time>
      </trkpt>
      <trkpt lat="42.7475" lon="0.49201">
        <ele>1500.73</ele>
        <time>2020-08-29T08:24:10Z</time>
      </trkpt>
      <trkpt lat="42.74744" lon="0.49185">
        <ele>1500.17</ele>
        <time>2020-08-29T08:24:22Z</time>
      </trkpt>
      <trkpt lat="42.74738" lon="0.49176">
        <ele>1499.39</ele>
        <time>2020-08-29T08:24:32Z</time>
      </trkpt>
      <trkpt lat="42.7473" lon="0.4917">
        <ele>1497.75</ele>
        <time>2020-08-29T08:24:44Z</time>
      </trkpt>
      <trkpt lat="42.7473" lon="0.4917">
        <ele>1497.5</ele>
        <time>2020-08-29T08:24:45Z</time>
      </trkpt>
      <trkpt lat="42.74715" lon="0.49161">
        <ele>1495.4</ele>
        <time>2020-08-29T08:25:01Z</time>
      </trkpt>
      <trkpt lat="42.74701" lon="0.49144">
        <ele>1494.27</ele>
        <time>2020-08-29T08:25:16Z</time>
      </trkpt>
      <trkpt lat="42.74691" lon="0.49131">
        <ele>1493.31</ele>
        <time>2020-08-29T08:25:27Z</time>
      </trkpt>
      <trkpt lat="42.74685" lon="0.49127">
        <ele>1492.78</ele>
        <time>2020-08-29T08:25:34Z</time>
      </trkpt>
      <trkpt lat="42.74672" lon="0.49126">
        <ele>1491.57</ele>
        <time>2020-08-29T08:25:48Z</time>
      </trkpt>
      <trkpt lat="42.74659" lon="0.49125">
        <ele>1490.24</ele>
        <time>2020-08-29T08:26:04Z</time>
      </trkpt>
      <trkpt lat="42.74638" lon="0.49126">
        <ele>1489.41</ele>
        <time>2020-08-29T08:26:27Z</time>
      </trkpt>
      <trkpt lat="42.74618" lon="0.4913">
        <ele>1490.49</ele>
        <time>2020-08-29T08:26:47Z</time>
      </trkpt>
      <trkpt lat="42.74604" lon="0.49131">
        <ele>1492.17</ele>
        <time>2020-08-29T08:27:04Z</time>
      </trkpt>
      <trkpt lat="42.746" lon="0.49131">
        <ele>1492.19</ele>
        <time>2020-08-29T08:27:12Z</time>
      </trkpt>
      <trkpt lat="42.74585" lon="0.49133">
        <ele>1492.1</ele>
        <time>2020-08-29T08:27:27Z</time>
      </trkpt>
      <trkpt lat="42.74571" lon="0.49125">
        <ele>1492.16</ele>
        <time>2020-08-29T08:27:42Z</time>
      </trkpt>
      <trkpt lat="42.74562" lon="0.49124">
        <ele>1493.43</ele>
        <time>2020-08-29T08:27:59Z</time>
      </trkpt>
      <trkpt lat="42.74562" lon="0.49125">
        <ele>1493.37</ele>
        <time>2020-08-29T08:28:13Z</time>
      </trkpt>
      <trkpt lat="42.74562" lon="0.49125">
        <ele>1493.32</ele>
        <time>2020-08-29T08:28:26Z</time>
      </trkpt>
      <trkpt lat="42.74561" lon="0.49127">
        <ele>1493.47</ele>
        <time>2020-08-29T08:29:01Z</time>
      </trkpt>
      <trkpt lat="42.74561" lon="0.49127">
        <ele>1493.5</ele>
        <time>2020-08-29T08:29:06Z</time>
      </trkpt>
      <trkpt lat="42.74559" lon="0.49126">
        <ele>1495.25</ele>
        <time>2020-08-29T08:29:08Z</time>
      </trkpt>
      <trkpt lat="42.74558" lon="0.49125">
        <ele>1491.07</ele>
        <time>2020-08-29T08:29:17Z</time>
      </trkpt>
      <trkpt lat="42.74558" lon="0.49125">
        <ele>1494.74</ele>
        <time>2020-08-29T08:29:18Z</time>
      </trkpt>
      <trkpt lat="42.74556" lon="0.49125">
        <ele>1493.74</ele>
        <time>2020-08-29T08:29:24Z</time>
      </trkpt>
      <trkpt lat="42.74548" lon="0.49126">
        <ele>1492.63</ele>
        <time>2020-08-29T08:29:35Z</time>
      </trkpt>
      <trkpt lat="42.74539" lon="0.49128">
        <ele>1491.73</ele>
        <time>2020-08-29T08:29:49Z</time>
      </trkpt>
      <trkpt lat="42.74534" lon="0.49129">
        <ele>1491.4</ele>
        <time>2020-08-29T08:29:55Z</time>
      </trkpt>
      <trkpt lat="42.74521" lon="0.49138">
        <ele>1490.98</ele>
        <time>2020-08-29T08:30:12Z</time>
      </trkpt>
      <trkpt lat="42.74519" lon="0.49139">
        <ele>1490.98</ele>
        <time>2020-08-29T08:30:17Z</time>
      </trkpt>
      <trkpt lat="42.74516" lon="0.49141">
        <ele>1491.01</ele>
        <time>2020-08-29T08:30:20Z</time>
      </trkpt>
      <trkpt lat="42.74507" lon="0.49147">
        <ele>1491.95</ele>
        <time>2020-08-29T08:30:34Z</time>
      </trkpt>
      <trkpt lat="42.745" lon="0.49153">
        <ele>1494.8</ele>
        <time>2020-08-29T08:30:49Z</time>
      </trkpt>
      <trkpt lat="42.74492" lon="0.49148">
        <ele>1496.25</ele>
        <time>2020-08-29T08:31:01Z</time>
      </trkpt>
      <trkpt lat="42.74479" lon="0.49152">
        <ele>1497.84</ele>
        <time>2020-08-29T08:31:17Z</time>
      </trkpt>
      <trkpt lat="42.74471" lon="0.49163">
        <ele>1499.16</ele>
        <time>2020-08-29T08:31:32Z</time>
      </trkpt>
      <trkpt lat="42.74464" lon="0.49162">
        <ele>1500.8</ele>
        <time>2020-08-29T08:31:47Z</time>
      </trkpt>
      <trkpt lat="42.74465" lon="0.49159">
        <ele>1501.08</ele>
        <time>2020-08-29T08:32:29Z</time>
      </trkpt>
      <trkpt lat="42.74463" lon="0.49161">
        <ele>1501.53</ele>
        <time>2020-08-29T08:32:51Z</time>
      </trkpt>
      <trkpt lat="42.74456" lon="0.49173">
        <ele>1504.29</ele>
        <time>2020-08-29T08:33:08Z</time>
      </trkpt>
      <trkpt lat="42.74449" lon="0.49169">
        <ele>1506.94</ele>
        <time>2020-08-29T08:33:24Z</time>
      </trkpt>
      <trkpt lat="42.74443" lon="0.4916">
        <ele>1509.34</ele>
        <time>2020-08-29T08:33:41Z</time>
      </trkpt>
      <trkpt lat="42.74439" lon="0.49161">
        <ele>1510.52</ele>
        <time>2020-08-29T08:34:11Z</time>
      </trkpt>
      <trkpt lat="42.74431" lon="0.49166">
        <ele>1513.78</ele>
        <time>2020-08-29T08:34:28Z</time>
      </trkpt>
      <trkpt lat="42.74431" lon="0.49166">
        <ele>1513.69</ele>
        <time>2020-08-29T08:34:47Z</time>
      </trkpt>
      <trkpt lat="42.74432" lon="0.49166">
        <ele>1513.82</ele>
        <time>2020-08-29T08:35:12Z</time>
      </trkpt>
      <trkpt lat="42.7443" lon="0.49171">
        <ele>1514.8</ele>
        <time>2020-08-29T08:35:34Z</time>
      </trkpt>
      <trkpt lat="42.7443" lon="0.49172">
        <ele>1514.6</ele>
        <time>2020-08-29T08:35:56Z</time>
      </trkpt>
      <trkpt lat="42.7443" lon="0.49172">
        <ele>1514.77</ele>
        <time>2020-08-29T08:36:21Z</time>
      </trkpt>
      <trkpt lat="42.74428" lon="0.49178">
        <ele>1515.67</ele>
        <time>2020-08-29T08:36:44Z</time>
      </trkpt>
      <trkpt lat="42.74424" lon="0.49183">
        <ele>1516.7</ele>
        <time>2020-08-29T08:36:51Z</time>
      </trkpt>
      <trkpt lat="42.74424" lon="0.49187">
        <ele>1517.02</ele>
        <time>2020-08-29T08:36:55Z</time>
      </trkpt>
      <trkpt lat="42.74418" lon="0.492">
        <ele>1519.36</ele>
        <time>2020-08-29T08:37:09Z</time>
      </trkpt>
      <trkpt lat="42.74411" lon="0.4921">
        <ele>1519.23</ele>
        <time>2020-08-29T08:37:22Z</time>
      </trkpt>
      <trkpt lat="42.74408" lon="0.49211">
        <ele>1519.5</ele>
        <time>2020-08-29T08:37:36Z</time>
      </trkpt>
      <trkpt lat="42.74408" lon="0.49211">
        <ele>1514.54</ele>
        <time>2020-08-29T08:37:44Z</time>
      </trkpt>
      <trkpt lat="42.74408" lon="0.49211">
        <ele>1518.29</ele>
        <time>2020-08-29T08:37:45Z</time>
      </trkpt>
      <trkpt lat="42.74407" lon="0.49211">
        <ele>1522.71</ele>
        <time>2020-08-29T08:38:21Z</time>
      </trkpt>
      <trkpt lat="42.74407" lon="0.4921">
        <ele>1519.89</ele>
        <time>2020-08-29T08:38:24Z</time>
      </trkpt>
      <trkpt lat="42.74406" lon="0.49212">
        <ele>1519.83</ele>
        <time>2020-08-29T08:38:50Z</time>
      </trkpt>
      <trkpt lat="42.74405" lon="0.49211">
        <ele>1519.92</ele>
        <time>2020-08-29T08:39:26Z</time>
      </trkpt>
      <trkpt lat="42.74405" lon="0.49211">
        <ele>1520.31</ele>
        <time>2020-08-29T08:39:47Z</time>
      </trkpt>
      <trkpt lat="42.74405" lon="0.49211">
        <ele>1515.43</ele>
        <time>2020-08-29T08:39:55Z</time>
      </trkpt>
      <trkpt lat="42.74405" lon="0.49212">
        <ele>1521.04</ele>
        <time>2020-08-29T08:39:56Z</time>
      </trkpt>
      <trkpt lat="42.74403" lon="0.49215">
        <ele>1520.6</ele>
        <time>2020-08-29T08:40:16Z</time>
      </trkpt>
      <trkpt lat="42.744" lon="0.49224">
        <ele>1521.88</ele>
        <time>2020-08-29T08:40:32Z</time>
      </trkpt>
      <trkpt lat="42.74397" lon="0.49233">
        <ele>1523.33</ele>
        <time>2020-08-29T08:40:48Z</time>
      </trkpt>
      <trkpt lat="42.74389" lon="0.49247">
        <ele>1526.01</ele>
        <time>2020-08-29T08:41:04Z</time>
      </trkpt>
      <trkpt lat="42.74389" lon="0.49257">
        <ele>1525.92</ele>
        <time>2020-08-29T08:41:18Z</time>
      </trkpt>
      <trkpt lat="42.74389" lon="0.49268">
        <ele>1526.44</ele>
        <time>2020-08-29T08:41:36Z</time>
      </trkpt>
      <trkpt lat="42.74389" lon="0.49285">
        <ele>1527.52</ele>
        <time>2020-08-29T08:41:54Z</time>
      </trkpt>
      <trkpt lat="42.74386" lon="0.49299">
        <ele>1528.62</ele>
        <time>2020-08-29T08:42:09Z</time>
      </trkpt>
      <trkpt lat="42.74385" lon="0.49306">
        <ele>1528.91</ele>
        <time>2020-08-29T08:42:26Z</time>
      </trkpt>
      <trkpt lat="42.74382" lon="0.49308">
        <ele>1529.09</ele>
        <time>2020-08-29T08:43:02Z</time>
      </trkpt>
      <trkpt lat="42.74382" lon="0.49309">
        <ele>1528.99</ele>
        <time>2020-08-29T08:43:25Z</time>
      </trkpt>
      <trkpt lat="42.74384" lon="0.49309">
        <ele>1529.22</ele>
        <time>2020-08-29T08:43:50Z</time>
      </trkpt>
      <trkpt lat="42.74382" lon="0.49311">
        <ele>1529.26</ele>
        <time>2020-08-29T08:44:16Z</time>
      </trkpt>
      <trkpt lat="42.74381" lon="0.49324">
        <ele>1530.29</ele>
        <time>2020-08-29T08:44:33Z</time>
      </trkpt>
      <trkpt lat="42.74378" lon="0.49341">
        <ele>1531.65</ele>
        <time>2020-08-29T08:44:49Z</time>
      </trkpt>
      <trkpt lat="42.74374" lon="0.49356">
        <ele>1532.44</ele>
        <time>2020-08-29T08:45:06Z</time>
      </trkpt>
      <trkpt lat="42.74363" lon="0.4937">
        <ele>1533.13</ele>
        <time>2020-08-29T08:45:22Z</time>
      </trkpt>
      <trkpt lat="42.74351" lon="0.49387">
        <ele>1532.01</ele>
        <time>2020-08-29T08:45:39Z</time>
      </trkpt>
      <trkpt lat="42.74341" lon="0.4941">
        <ele>1532.4</ele>
        <time>2020-08-29T08:45:57Z</time>
      </trkpt>
      <trkpt lat="42.7433" lon="0.49438">
        <ele>1534.54</ele>
        <time>2020-08-29T08:46:18Z</time>
      </trkpt>
      <trkpt lat="42.74321" lon="0.49462">
        <ele>1537.71</ele>
        <time>2020-08-29T08:46:40Z</time>
      </trkpt>
      <trkpt lat="42.74322" lon="0.4948">
        <ele>1540.77</ele>
        <time>2020-08-29T08:46:59Z</time>
      </trkpt>
      <trkpt lat="42.74315" lon="0.495">
        <ele>1542.4</ele>
        <time>2020-08-29T08:47:22Z</time>
      </trkpt>
      <trkpt lat="42.74303" lon="0.49522">
        <ele>1545.45</ele>
        <time>2020-08-29T08:47:40Z</time>
      </trkpt>
      <trkpt lat="42.74302" lon="0.49524">
        <ele>1546.2</ele>
        <time>2020-08-29T08:47:43Z</time>
      </trkpt>
      <trkpt lat="42.74284" lon="0.49537">
        <ele>1549.17</ele>
        <time>2020-08-29T08:48:04Z</time>
      </trkpt>
      <trkpt lat="42.74272" lon="0.49553">
        <ele>1552.3</ele>
        <time>2020-08-29T08:48:22Z</time>
      </trkpt>
      <trkpt lat="42.7426" lon="0.49568">
        <ele>1555.46</ele>
        <time>2020-08-29T08:48:41Z</time>
      </trkpt>
      <trkpt lat="42.74247" lon="0.49582">
        <ele>1557.8</ele>
        <time>2020-08-29T08:49:01Z</time>
      </trkpt>
      <trkpt lat="42.74243" lon="0.49587">
        <ele>1558</ele>
        <time>2020-08-29T08:49:23Z</time>
      </trkpt>
      <trkpt lat="42.74234" lon="0.49595">
        <ele>1556.18</ele>
        <time>2020-08-29T08:49:35Z</time>
      </trkpt>
      <trkpt lat="42.74232" lon="0.49597">
        <ele>1561.02</ele>
        <time>2020-08-29T08:49:37Z</time>
      </trkpt>
      <trkpt lat="42.74219" lon="0.49609">
        <ele>1561.99</ele>
        <time>2020-08-29T08:49:50Z</time>
      </trkpt>
      <trkpt lat="42.74207" lon="0.49624">
        <ele>1565.19</ele>
        <time>2020-08-29T08:50:09Z</time>
      </trkpt>
      <trkpt lat="42.74204" lon="0.49631">
        <ele>1568.26</ele>
        <time>2020-08-29T08:50:22Z</time>
      </trkpt>
      <trkpt lat="42.74199" lon="0.49642">
        <ele>1570.04</ele>
        <time>2020-08-29T08:50:41Z</time>
      </trkpt>
      <trkpt lat="42.74196" lon="0.49648">
        <ele>1569.8</ele>
        <time>2020-08-29T08:50:55Z</time>
      </trkpt>
      <trkpt lat="42.74194" lon="0.49651">
        <ele>1570.08</ele>
        <time>2020-08-29T08:50:57Z</time>
      </trkpt>
      <trkpt lat="42.7419" lon="0.49668">
        <ele>1572.39</ele>
        <time>2020-08-29T08:51:10Z</time>
      </trkpt>
      <trkpt lat="42.74188" lon="0.49681">
        <ele>1575.53</ele>
        <time>2020-08-29T08:51:25Z</time>
      </trkpt>
      <trkpt lat="42.74182" lon="0.49683">
        <ele>1577.1</ele>
        <time>2020-08-29T08:51:34Z</time>
      </trkpt>
      <trkpt lat="42.74171" lon="0.49682">
        <ele>1578.58</ele>
        <time>2020-08-29T08:51:45Z</time>
      </trkpt>
      <trkpt lat="42.74166" lon="0.49682">
        <ele>1579.29</ele>
        <time>2020-08-29T08:51:49Z</time>
      </trkpt>
      <trkpt lat="42.74152" lon="0.49688">
        <ele>1582.45</ele>
        <time>2020-08-29T08:52:05Z</time>
      </trkpt>
      <trkpt lat="42.74141" lon="0.49699">
        <ele>1585.51</ele>
        <time>2020-08-29T08:52:22Z</time>
      </trkpt>
      <trkpt lat="42.74137" lon="0.4971">
        <ele>1588.62</ele>
        <time>2020-08-29T08:52:35Z</time>
      </trkpt>
      <trkpt lat="42.74134" lon="0.49714">
        <ele>1589.71</ele>
        <time>2020-08-29T08:52:42Z</time>
      </trkpt>
      <trkpt lat="42.74132" lon="0.4972">
        <ele>1591.25</ele>
        <time>2020-08-29T08:52:51Z</time>
      </trkpt>
      <trkpt lat="42.7413" lon="0.49722">
        <ele>1590.65</ele>
        <time>2020-08-29T08:52:53Z</time>
      </trkpt>
      <trkpt lat="42.74132" lon="0.49723">
        <ele>1589.11</ele>
        <time>2020-08-29T08:53:15Z</time>
      </trkpt>
      <trkpt lat="42.74138" lon="0.49712">
        <ele>1586.05</ele>
        <time>2020-08-29T08:53:29Z</time>
      </trkpt>
      <trkpt lat="42.74144" lon="0.49704">
        <ele>1583.72</ele>
        <time>2020-08-29T08:53:39Z</time>
      </trkpt>
      <trkpt lat="42.74147" lon="0.497">
        <ele>1583.31</ele>
        <time>2020-08-29T08:53:42Z</time>
      </trkpt>
      <trkpt lat="42.74152" lon="0.49695">
        <ele>1582.36</ele>
        <time>2020-08-29T08:53:46Z</time>
      </trkpt>
      <trkpt lat="42.74161" lon="0.4969">
        <ele>1580.42</ele>
        <time>2020-08-29T08:53:59Z</time>
      </trkpt>
      <trkpt lat="42.74162" lon="0.49685">
        <ele>1579.71</ele>
        <time>2020-08-29T08:54:24Z</time>
      </trkpt>
      <trkpt lat="42.74165" lon="0.49686">
        <ele>1578.96</ele>
        <time>2020-08-29T08:54:27Z</time>
      </trkpt>
      <trkpt lat="42.7417" lon="0.49685">
        <ele>1578.28</ele>
        <time>2020-08-29T08:54:44Z</time>
      </trkpt>
      <trkpt lat="42.74174" lon="0.49685">
        <ele>1578.03</ele>
        <time>2020-08-29T08:54:55Z</time>
      </trkpt>
      <trkpt lat="42.7418" lon="0.49683">
        <ele>1576.78</ele>
        <time>2020-08-29T08:55:01Z</time>
      </trkpt>
      <trkpt lat="42.74182" lon="0.49684">
        <ele>1576.81</ele>
        <time>2020-08-29T08:55:03Z</time>
      </trkpt>
      <trkpt lat="42.74188" lon="0.49679">
        <ele>1574</ele>
        <time>2020-08-29T08:55:18Z</time>
      </trkpt>
      <trkpt lat="42.7419" lon="0.49671">
        <ele>1572.34</ele>
        <time>2020-08-29T08:55:27Z</time>
      </trkpt>
      <trkpt lat="42.74197" lon="0.49653">
        <ele>1570.14</ele>
        <time>2020-08-29T08:55:42Z</time>
      </trkpt>
      <trkpt lat="42.742" lon="0.49648">
        <ele>1569.91</ele>
        <time>2020-08-29T08:55:46Z</time>
      </trkpt>
      <trkpt lat="42.74203" lon="0.49639">
        <ele>1569.2</ele>
        <time>2020-08-29T08:56:04Z</time>
      </trkpt>
      <trkpt lat="42.74208" lon="0.49633">
        <ele>1567.5</ele>
        <time>2020-08-29T08:56:24Z</time>
      </trkpt>
      <trkpt lat="42.74209" lon="0.49625">
        <ele>1565.16</ele>
        <time>2020-08-29T08:56:36Z</time>
      </trkpt>
      <trkpt lat="42.74211" lon="0.49624">
        <ele>1564.61</ele>
        <time>2020-08-29T08:56:38Z</time>
      </trkpt>
      <trkpt lat="42.74215" lon="0.49618">
        <ele>1563.86</ele>
        <time>2020-08-29T08:56:44Z</time>
      </trkpt>
      <trkpt lat="42.74223" lon="0.49608">
        <ele>1562.07</ele>
        <time>2020-08-29T08:56:59Z</time>
      </trkpt>
      <trkpt lat="42.74225" lon="0.49606">
        <ele>1561.74</ele>
        <time>2020-08-29T08:57:01Z</time>
      </trkpt>
      <trkpt lat="42.74241" lon="0.49596">
        <ele>1559.77</ele>
        <time>2020-08-29T08:57:20Z</time>
      </trkpt>
      <trkpt lat="42.74247" lon="0.4959">
        <ele>1557.42</ele>
        <time>2020-08-29T08:57:31Z</time>
      </trkpt>
      <trkpt lat="42.74256" lon="0.49582">
        <ele>1555.75</ele>
        <time>2020-08-29T08:57:45Z</time>
      </trkpt>
      <trkpt lat="42.74264" lon="0.49572">
        <ele>1553.18</ele>
        <time>2020-08-29T08:58:00Z</time>
      </trkpt>
      <trkpt lat="42.74271" lon="0.49562">
        <ele>1550</ele>
        <time>2020-08-29T08:58:13Z</time>
      </trkpt>
      <trkpt lat="42.74272" lon="0.49561">
        <ele>1549.71</ele>
        <time>2020-08-29T08:58:15Z</time>
      </trkpt>
      <trkpt lat="42.74276" lon="0.49559">
        <ele>1549.14</ele>
        <time>2020-08-29T08:58:18Z</time>
      </trkpt>
      <trkpt lat="42.74288" lon="0.4955">
        <ele>1546.67</ele>
        <time>2020-08-29T08:58:34Z</time>
      </trkpt>
      <trkpt lat="42.74295" lon="0.49543">
        <ele>1545.64</ele>
        <time>2020-08-29T08:58:42Z</time>
      </trkpt>
      <trkpt lat="42.74302" lon="0.49528">
        <ele>1542.39</ele>
        <time>2020-08-29T08:58:54Z</time>
      </trkpt>
      <trkpt lat="42.74316" lon="0.49506">
        <ele>1540.79</ele>
        <time>2020-08-29T08:59:13Z</time>
      </trkpt>
      <trkpt lat="42.7432" lon="0.495">
        <ele>1540.18</ele>
        <time>2020-08-29T08:59:23Z</time>
      </trkpt>
      <trkpt lat="42.74319" lon="0.49496">
        <ele>1539.56</ele>
        <time>2020-08-29T08:59:27Z</time>
      </trkpt>
      <trkpt lat="42.74319" lon="0.49475">
        <ele>1536.18</ele>
        <time>2020-08-29T08:59:45Z</time>
      </trkpt>
      <trkpt lat="42.74321" lon="0.49462">
        <ele>1535.39</ele>
        <time>2020-08-29T08:59:54Z</time>
      </trkpt>
      <trkpt lat="42.74323" lon="0.49452">
        <ele>1533.2</ele>
        <time>2020-08-29T09:00:04Z</time>
      </trkpt>
      <trkpt lat="42.7433" lon="0.49435">
        <ele>1531.48</ele>
        <time>2020-08-29T09:00:19Z</time>
      </trkpt>
      <trkpt lat="42.74334" lon="0.49424">
        <ele>1530.48</ele>
        <time>2020-08-29T09:00:36Z</time>
      </trkpt>
      <trkpt lat="42.74343" lon="0.49412">
        <ele>1529.72</ele>
        <time>2020-08-29T09:00:46Z</time>
      </trkpt>
      <trkpt lat="42.74345" lon="0.49409">
        <ele>1529.83</ele>
        <time>2020-08-29T09:00:49Z</time>
      </trkpt>
      <trkpt lat="42.74352" lon="0.49402">
        <ele>1529.76</ele>
        <time>2020-08-29T09:00:59Z</time>
      </trkpt>
      <trkpt lat="42.74354" lon="0.494">
        <ele>1529.84</ele>
        <time>2020-08-29T09:01:01Z</time>
      </trkpt>
      <trkpt lat="42.74365" lon="0.49382">
        <ele>1530.59</ele>
        <time>2020-08-29T09:01:19Z</time>
      </trkpt>
      <trkpt lat="42.74377" lon="0.49367">
        <ele>1529.32</ele>
        <time>2020-08-29T09:01:34Z</time>
      </trkpt>
      <trkpt lat="42.74382" lon="0.49347">
        <ele>1528.15</ele>
        <time>2020-08-29T09:01:48Z</time>
      </trkpt>
      <trkpt lat="42.74384" lon="0.49335">
        <ele>1526.91</ele>
        <time>2020-08-29T09:01:58Z</time>
      </trkpt>
      <trkpt lat="42.74387" lon="0.49317">
        <ele>1525.61</ele>
        <time>2020-08-29T09:02:11Z</time>
      </trkpt>
      <trkpt lat="42.7439" lon="0.49296">
        <ele>1524.42</ele>
        <time>2020-08-29T09:02:25Z</time>
      </trkpt>
      <trkpt lat="42.74391" lon="0.49278">
        <ele>1523.35</ele>
        <time>2020-08-29T09:02:38Z</time>
      </trkpt>
      <trkpt lat="42.74391" lon="0.4927">
        <ele>1522.72</ele>
        <time>2020-08-29T09:02:43Z</time>
      </trkpt>
      <trkpt lat="42.74389" lon="0.49262">
        <ele>1522.92</ele>
        <time>2020-08-29T09:02:54Z</time>
      </trkpt>
      <trkpt lat="42.7439" lon="0.4926">
        <ele>1522.9</ele>
        <time>2020-08-29T09:03:11Z</time>
      </trkpt>
      <trkpt lat="42.74389" lon="0.49256">
        <ele>1522.25</ele>
        <time>2020-08-29T09:03:30Z</time>
      </trkpt>
      <trkpt lat="42.74393" lon="0.49247">
        <ele>1521.57</ele>
        <time>2020-08-29T09:03:40Z</time>
      </trkpt>
      <trkpt lat="42.74396" lon="0.49242">
        <ele>1520.07</ele>
        <time>2020-08-29T09:03:49Z</time>
      </trkpt>
      <trkpt lat="42.74404" lon="0.49225">
        <ele>1517.92</ele>
        <time>2020-08-29T09:04:01Z</time>
      </trkpt>
      <trkpt lat="42.74409" lon="0.49216">
        <ele>1517.01</ele>
        <time>2020-08-29T09:04:07Z</time>
      </trkpt>
      <trkpt lat="42.74413" lon="0.4921">
        <ele>1516.58</ele>
        <time>2020-08-29T09:04:13Z</time>
      </trkpt>
      <trkpt lat="42.74424" lon="0.49203">
        <ele>1516.39</ele>
        <time>2020-08-29T09:04:26Z</time>
      </trkpt>
      <trkpt lat="42.74424" lon="0.49203">
        <ele>1516.2</ele>
        <time>2020-08-29T09:04:27Z</time>
      </trkpt>
      <trkpt lat="42.74427" lon="0.49193">
        <ele>1514.38</ele>
        <time>2020-08-29T09:04:37Z</time>
      </trkpt>
      <trkpt lat="42.74429" lon="0.49182">
        <ele>1512.47</ele>
        <time>2020-08-29T09:04:51Z</time>
      </trkpt>
      <trkpt lat="42.74435" lon="0.49174">
        <ele>1509.73</ele>
        <time>2020-08-29T09:05:05Z</time>
      </trkpt>
      <trkpt lat="42.74442" lon="0.49168">
        <ele>1507.08</ele>
        <time>2020-08-29T09:05:20Z</time>
      </trkpt>
      <trkpt lat="42.74452" lon="0.49168">
        <ele>1503.96</ele>
        <time>2020-08-29T09:05:37Z</time>
      </trkpt>
      <trkpt lat="42.74461" lon="0.49172">
        <ele>1500.95</ele>
        <time>2020-08-29T09:05:51Z</time>
      </trkpt>
      <trkpt lat="42.74464" lon="0.49171">
        <ele>1500.04</ele>
        <time>2020-08-29T09:05:56Z</time>
      </trkpt>
      <trkpt lat="42.74465" lon="0.49163">
        <ele>1499.22</ele>
        <time>2020-08-29T09:05:59Z</time>
      </trkpt>
      <trkpt lat="42.74479" lon="0.49157">
        <ele>1496.24</ele>
        <time>2020-08-29T09:06:14Z</time>
      </trkpt>
      <trkpt lat="42.7448" lon="0.49159">
        <ele>1495.08</ele>
        <time>2020-08-29T09:06:26Z</time>
      </trkpt>
      <trkpt lat="42.7448" lon="0.49159">
        <ele>1495.39</ele>
        <time>2020-08-29T09:06:34Z</time>
      </trkpt>
      <trkpt lat="42.74478" lon="0.49161">
        <ele>1496.38</ele>
        <time>2020-08-29T09:06:52Z</time>
      </trkpt>
      <trkpt lat="42.7448" lon="0.49156">
        <ele>1497.2</ele>
        <time>2020-08-29T09:07:10Z</time>
      </trkpt>
      <trkpt lat="42.74481" lon="0.49153">
        <ele>1495.74</ele>
        <time>2020-08-29T09:07:21Z</time>
      </trkpt>
      <trkpt lat="42.74488" lon="0.49147">
        <ele>1494.8</ele>
        <time>2020-08-29T09:07:34Z</time>
      </trkpt>
      <trkpt lat="42.74489" lon="0.49147">
        <ele>1494.1</ele>
        <time>2020-08-29T09:07:37Z</time>
      </trkpt>
      <trkpt lat="42.74492" lon="0.49148">
        <ele>1493.76</ele>
        <time>2020-08-29T09:07:40Z</time>
      </trkpt>
      <trkpt lat="42.74502" lon="0.4915">
        <ele>1491.64</ele>
        <time>2020-08-29T09:07:54Z</time>
      </trkpt>
      <trkpt lat="42.74507" lon="0.49146">
        <ele>1489.86</ele>
        <time>2020-08-29T09:08:02Z</time>
      </trkpt>
      <trkpt lat="42.74511" lon="0.49143">
        <ele>1489.32</ele>
        <time>2020-08-29T09:08:06Z</time>
      </trkpt>
      <trkpt lat="42.74522" lon="0.49138">
        <ele>1488.66</ele>
        <time>2020-08-29T09:08:17Z</time>
      </trkpt>
      <trkpt lat="42.74528" lon="0.49135">
        <ele>1488.75</ele>
        <time>2020-08-29T09:08:24Z</time>
      </trkpt>
      <trkpt lat="42.7453" lon="0.49133">
        <ele>1488.74</ele>
        <time>2020-08-29T09:08:26Z</time>
      </trkpt>
      <trkpt lat="42.74543" lon="0.49128">
        <ele>1490.18</ele>
        <time>2020-08-29T09:08:39Z</time>
      </trkpt>
      <trkpt lat="42.74544" lon="0.49128">
        <ele>1490.32</ele>
        <time>2020-08-29T09:08:40Z</time>
      </trkpt>
      <trkpt lat="42.7455" lon="0.49121">
        <ele>1491.74</ele>
        <time>2020-08-29T09:08:50Z</time>
      </trkpt>
      <trkpt lat="42.74549" lon="0.49101">
        <ele>1491.58</ele>
        <time>2020-08-29T09:09:03Z</time>
      </trkpt>
      <trkpt lat="42.74549" lon="0.49093">
        <ele>1491.23</ele>
        <time>2020-08-29T09:09:07Z</time>
      </trkpt>
      <trkpt lat="42.74544" lon="0.49077">
        <ele>1492.35</ele>
        <time>2020-08-29T09:09:20Z</time>
      </trkpt>
      <trkpt lat="42.74543" lon="0.49075">
        <ele>1492.43</ele>
        <time>2020-08-29T09:09:22Z</time>
      </trkpt>
      <trkpt lat="42.74538" lon="0.49071">
        <ele>1492.73</ele>
        <time>2020-08-29T09:09:26Z</time>
      </trkpt>
      <trkpt lat="42.74532" lon="0.49062">
        <ele>1494.99</ele>
        <time>2020-08-29T09:09:39Z</time>
      </trkpt>
      <trkpt lat="42.74531" lon="0.49054">
        <ele>1497.9</ele>
        <time>2020-08-29T09:09:55Z</time>
      </trkpt>
      <trkpt lat="42.74525" lon="0.4905">
        <ele>1500.73</ele>
        <time>2020-08-29T09:10:10Z</time>
      </trkpt>
      <trkpt lat="42.74519" lon="0.49048">
        <ele>1503.11</ele>
        <time>2020-08-29T09:10:22Z</time>
      </trkpt>
      <trkpt lat="42.74508" lon="0.49052">
        <ele>1505.54</ele>
        <time>2020-08-29T09:10:37Z</time>
      </trkpt>
      <trkpt lat="42.74506" lon="0.49052">
        <ele>1505.7</ele>
        <time>2020-08-29T09:10:39Z</time>
      </trkpt>
      <trkpt lat="42.74504" lon="0.49053">
        <ele>1505.97</ele>
        <time>2020-08-29T09:10:41Z</time>
      </trkpt>
      <trkpt lat="42.74495" lon="0.49058">
        <ele>1508.43</ele>
        <time>2020-08-29T09:10:54Z</time>
      </trkpt>
      <trkpt lat="42.74488" lon="0.49065">
        <ele>1511.03</ele>
        <time>2020-08-29T09:11:06Z</time>
      </trkpt>
      <trkpt lat="42.74482" lon="0.49071">
        <ele>1511.83</ele>
        <time>2020-08-29T09:11:14Z</time>
      </trkpt>
      <trkpt lat="42.74469" lon="0.49079">
        <ele>1512.41</ele>
        <time>2020-08-29T09:11:27Z</time>
      </trkpt>
      <trkpt lat="42.74465" lon="0.49077">
        <ele>1511.91</ele>
        <time>2020-08-29T09:11:31Z</time>
      </trkpt>
      <trkpt lat="42.74449" lon="0.49074">
        <ele>1511.59</ele>
        <time>2020-08-29T09:11:46Z</time>
      </trkpt>
      <trkpt lat="42.74438" lon="0.49066">
        <ele>1511.54</ele>
        <time>2020-08-29T09:12:01Z</time>
      </trkpt>
      <trkpt lat="42.74438" lon="0.49067">
        <ele>1512</ele>
        <time>2020-08-29T09:12:19Z</time>
      </trkpt>
      <trkpt lat="42.74438" lon="0.49069">
        <ele>1511.93</ele>
        <time>2020-08-29T09:12:51Z</time>
      </trkpt>
      <trkpt lat="42.74438" lon="0.49068">
        <ele>1511.85</ele>
        <time>2020-08-29T09:13:23Z</time>
      </trkpt>
      <trkpt lat="42.74438" lon="0.49068">
        <ele>1511.75</ele>
        <time>2020-08-29T09:13:58Z</time>
      </trkpt>
      <trkpt lat="42.74438" lon="0.49068">
        <ele>1511.56</ele>
        <time>2020-08-29T09:14:29Z</time>
      </trkpt>
      <trkpt lat="42.74438" lon="0.49067">
        <ele>1511.62</ele>
        <time>2020-08-29T09:14:52Z</time>
      </trkpt>
      <trkpt lat="42.74439" lon="0.49066">
        <ele>1511.56</ele>
        <time>2020-08-29T09:15:02Z</time>
      </trkpt>
      <trkpt lat="42.74439" lon="0.49066">
        <ele>1511.32</ele>
        <time>2020-08-29T09:15:26Z</time>
      </trkpt>
      <trkpt lat="42.74439" lon="0.49067">
        <ele>1511.12</ele>
        <time>2020-08-29T09:15:39Z</time>
      </trkpt>
      <trkpt lat="42.74439" lon="0.49067">
        <ele>1509.62</ele>
        <time>2020-08-29T09:15:46Z</time>
      </trkpt>
      <trkpt lat="42.74438" lon="0.49068">
        <ele>1511.03</ele>
        <time>2020-08-29T09:16:14Z</time>
      </trkpt>
      <trkpt lat="42.74438" lon="0.49067">
        <ele>1510.66</ele>
        <time>2020-08-29T09:16:53Z</time>
      </trkpt>
      <trkpt lat="42.74439" lon="0.49067">
        <ele>1510.78</ele>
        <time>2020-08-29T09:17:41Z</time>
      </trkpt>
      <trkpt lat="42.74439" lon="0.49068">
        <ele>1509.16</ele>
        <time>2020-08-29T09:18:09Z</time>
      </trkpt>
      <trkpt lat="42.74439" lon="0.49068">
        <ele>1512.58</ele>
        <time>2020-08-29T09:18:12Z</time>
      </trkpt>
      <trkpt lat="42.74439" lon="0.49068">
        <ele>1510.69</ele>
        <time>2020-08-29T09:18:15Z</time>
      </trkpt>
      <trkpt lat="42.74439" lon="0.49068">
        <ele>1510.37</ele>
        <time>2020-08-29T09:18:51Z</time>
      </trkpt>
      <trkpt lat="42.74438" lon="0.49067">
        <ele>1510.51</ele>
        <time>2020-08-29T09:19:39Z</time>
      </trkpt>
      <trkpt lat="42.74439" lon="0.49066">
        <ele>1510.68</ele>
        <time>2020-08-29T09:20:14Z</time>
      </trkpt>
      <trkpt lat="42.74438" lon="0.49067">
        <ele>1510.45</ele>
        <time>2020-08-29T09:20:45Z</time>
      </trkpt>
      <trkpt lat="42.74439" lon="0.49067">
        <ele>1509.97</ele>
        <time>2020-08-29T09:21:16Z</time>
      </trkpt>
      <trkpt lat="42.74439" lon="0.49067">
        <ele>1509.8</ele>
        <time>2020-08-29T09:21:46Z</time>
      </trkpt>
      <trkpt lat="42.74439" lon="0.49067">
        <ele>1509.6</ele>
        <time>2020-08-29T09:22:19Z</time>
      </trkpt>
      <trkpt lat="42.74441" lon="0.49066">
        <ele>1509.34</ele>
        <time>2020-08-29T09:22:48Z</time>
      </trkpt>
      <trkpt lat="42.74442" lon="0.49066">
        <ele>1509.02</ele>
        <time>2020-08-29T09:22:50Z</time>
      </trkpt>
      <trkpt lat="42.74446" lon="0.49074">
        <ele>1509.15</ele>
        <time>2020-08-29T09:23:05Z</time>
      </trkpt>
      <trkpt lat="42.74446" lon="0.49075">
        <ele>1508.96</ele>
        <time>2020-08-29T09:23:13Z</time>
      </trkpt>
      <trkpt lat="42.74447" lon="0.49078">
        <ele>1508.96</ele>
        <time>2020-08-29T09:23:16Z</time>
      </trkpt>
      <trkpt lat="42.7445" lon="0.49083">
        <ele>1509.01</ele>
        <time>2020-08-29T09:23:33Z</time>
      </trkpt>
      <trkpt lat="42.7445" lon="0.49082">
        <ele>1509.16</ele>
        <time>2020-08-29T09:23:55Z</time>
      </trkpt>
      <trkpt lat="42.74449" lon="0.49082">
        <ele>1508.98</ele>
        <time>2020-08-29T09:24:42Z</time>
      </trkpt>
      <trkpt lat="42.7445" lon="0.49084">
        <ele>1509.04</ele>
        <time>2020-08-29T09:25:17Z</time>
      </trkpt>
      <trkpt lat="42.74449" lon="0.49084">
        <ele>1508.81</ele>
        <time>2020-08-29T09:25:42Z</time>
      </trkpt>
      <trkpt lat="42.74449" lon="0.49084">
        <ele>1508.83</ele>
        <time>2020-08-29T09:26:09Z</time>
      </trkpt>
      <trkpt lat="42.74449" lon="0.49083">
        <ele>1507.21</ele>
        <time>2020-08-29T09:26:37Z</time>
      </trkpt>
      <trkpt lat="42.74449" lon="0.49083">
        <ele>1509.47</ele>
        <time>2020-08-29T09:26:58Z</time>
      </trkpt>
      <trkpt lat="42.74448" lon="0.49083">
        <ele>1508.87</ele>
        <time>2020-08-29T09:27:27Z</time>
      </trkpt>
      <trkpt lat="42.74449" lon="0.49082">
        <ele>1508.74</ele>
        <time>2020-08-29T09:27:51Z</time>
      </trkpt>
      <trkpt lat="42.74449" lon="0.49082">
        <ele>1508.95</ele>
        <time>2020-08-29T09:28:21Z</time>
      </trkpt>
      <trkpt lat="42.74448" lon="0.49083">
        <ele>1508.88</ele>
        <time>2020-08-29T09:28:44Z</time>
      </trkpt>
      <trkpt lat="42.74448" lon="0.49083">
        <ele>1508.82</ele>
        <time>2020-08-29T09:29:06Z</time>
      </trkpt>
      <trkpt lat="42.74447" lon="0.49077">
        <ele>1508.8</ele>
        <time>2020-08-29T09:29:27Z</time>
      </trkpt>
      <trkpt lat="42.74449" lon="0.49084">
        <ele>1508.84</ele>
        <time>2020-08-29T09:29:39Z</time>
      </trkpt>
      <trkpt lat="42.74449" lon="0.49084">
        <ele>1508.81</ele>
        <time>2020-08-29T09:30:10Z</time>
      </trkpt>
      <trkpt lat="42.74449" lon="0.49086">
        <ele>1508.85</ele>
        <time>2020-08-29T09:30:31Z</time>
      </trkpt>
      <trkpt lat="42.74448" lon="0.49086">
        <ele>1508.88</ele>
        <time>2020-08-29T09:30:55Z</time>
      </trkpt>
      <trkpt lat="42.74449" lon="0.49081">
        <ele>1508.67</ele>
        <time>2020-08-29T09:31:32Z</time>
      </trkpt>
      <trkpt lat="42.74447" lon="0.49079">
        <ele>1508.95</ele>
        <time>2020-08-29T09:31:49Z</time>
      </trkpt>
      <trkpt lat="42.74446" lon="0.49078">
        <ele>1509</ele>
        <time>2020-08-29T09:32:08Z</time>
      </trkpt>
      <trkpt lat="42.74448" lon="0.49077">
        <ele>1508.74</ele>
        <time>2020-08-29T09:32:46Z</time>
      </trkpt>
      <trkpt lat="42.74457" lon="0.49073">
        <ele>1509.23</ele>
        <time>2020-08-29T09:33:00Z</time>
      </trkpt>
      <trkpt lat="42.74458" lon="0.49072">
        <ele>1509.22</ele>
        <time>2020-08-29T09:33:02Z</time>
      </trkpt>
      <trkpt lat="42.7446" lon="0.4907">
        <ele>1509.07</ele>
        <time>2020-08-29T09:33:04Z</time>
      </trkpt>
      <trkpt lat="42.74468" lon="0.49076">
        <ele>1509.35</ele>
        <time>2020-08-29T09:33:15Z</time>
      </trkpt>
      <trkpt lat="42.74474" lon="0.49075">
        <ele>1509.85</ele>
        <time>2020-08-29T09:33:23Z</time>
      </trkpt>
      <trkpt lat="42.74478" lon="0.49072">
        <ele>1509.85</ele>
        <time>2020-08-29T09:33:26Z</time>
      </trkpt>
      <trkpt lat="42.74488" lon="0.49067">
        <ele>1508.52</ele>
        <time>2020-08-29T09:33:41Z</time>
      </trkpt>
      <trkpt lat="42.74492" lon="0.49058">
        <ele>1506.91</ele>
        <time>2020-08-29T09:33:54Z</time>
      </trkpt>
      <trkpt lat="42.74496" lon="0.49055">
        <ele>1505.39</ele>
        <time>2020-08-29T09:33:59Z</time>
      </trkpt>
      <trkpt lat="42.745" lon="0.49054">
        <ele>1504.63</ele>
        <time>2020-08-29T09:34:03Z</time>
      </trkpt>
      <trkpt lat="42.74508" lon="0.49052">
        <ele>1503.31</ele>
        <time>2020-08-29T09:34:15Z</time>
      </trkpt>
      <trkpt lat="42.74517" lon="0.49047">
        <ele>1501.24</ele>
        <time>2020-08-29T09:34:28Z</time>
      </trkpt>
      <trkpt lat="42.74526" lon="0.49044">
        <ele>1499.41</ele>
        <time>2020-08-29T09:34:42Z</time>
      </trkpt>
      <trkpt lat="42.74529" lon="0.49042">
        <ele>1498.57</ele>
        <time>2020-08-29T09:34:46Z</time>
      </trkpt>
      <trkpt lat="42.74534" lon="0.49039">
        <ele>1497.88</ele>
        <time>2020-08-29T09:34:51Z</time>
      </trkpt>
      <trkpt lat="42.74537" lon="0.4904">
        <ele>1497.66</ele>
        <time>2020-08-29T09:34:54Z</time>
      </trkpt>
      <trkpt lat="42.74541" lon="0.49039">
        <ele>1497.56</ele>
        <time>2020-08-29T09:35:12Z</time>
      </trkpt>
      <trkpt lat="42.74547" lon="0.49042">
        <ele>1496.47</ele>
        <time>2020-08-29T09:35:19Z</time>
      </trkpt>
      <trkpt lat="42.74549" lon="0.49044">
        <ele>1496.16</ele>
        <time>2020-08-29T09:35:21Z</time>
      </trkpt>
      <trkpt lat="42.74554" lon="0.49046">
        <ele>1495.5</ele>
        <time>2020-08-29T09:35:26Z</time>
      </trkpt>
      <trkpt lat="42.7456" lon="0.49051">
        <ele>1494.4</ele>
        <time>2020-08-29T09:35:33Z</time>
      </trkpt>
      <trkpt lat="42.74567" lon="0.49065">
        <ele>1492.72</ele>
        <time>2020-08-29T09:35:45Z</time>
      </trkpt>
      <trkpt lat="42.74572" lon="0.49067">
        <ele>1492</ele>
        <time>2020-08-29T09:35:55Z</time>
      </trkpt>
      <trkpt lat="42.74571" lon="0.49065">
        <ele>1492.22</ele>
        <time>2020-08-29T09:36:24Z</time>
      </trkpt>
      <trkpt lat="42.74569" lon="0.49068">
        <ele>1492.64</ele>
        <time>2020-08-29T09:36:27Z</time>
      </trkpt>
      <trkpt lat="42.74562" lon="0.49073">
        <ele>1491.83</ele>
        <time>2020-08-29T09:36:34Z</time>
      </trkpt>
      <trkpt lat="42.74552" lon="0.49072">
        <ele>1489.99</ele>
        <time>2020-08-29T09:36:42Z</time>
      </trkpt>
      <trkpt lat="42.74549" lon="0.49075">
        <ele>1489.28</ele>
        <time>2020-08-29T09:36:46Z</time>
      </trkpt>
      <trkpt lat="42.74553" lon="0.49096">
        <ele>1487.93</ele>
        <time>2020-08-29T09:36:58Z</time>
      </trkpt>
      <trkpt lat="42.74554" lon="0.4911">
        <ele>1488.72</ele>
        <time>2020-08-29T09:37:05Z</time>
      </trkpt>
      <trkpt lat="42.74561" lon="0.49122">
        <ele>1488.47</ele>
        <time>2020-08-29T09:37:19Z</time>
      </trkpt>
      <trkpt lat="42.74574" lon="0.49126">
        <ele>1487</ele>
        <time>2020-08-29T09:37:35Z</time>
      </trkpt>
      <trkpt lat="42.74585" lon="0.49133">
        <ele>1486.91</ele>
        <time>2020-08-29T09:37:51Z</time>
      </trkpt>
      <trkpt lat="42.746" lon="0.49129">
        <ele>1487.04</ele>
        <time>2020-08-29T09:38:08Z</time>
      </trkpt>
      <trkpt lat="42.74612" lon="0.49132">
        <ele>1485.88</ele>
        <time>2020-08-29T09:38:24Z</time>
      </trkpt>
      <trkpt lat="42.74621" lon="0.49135">
        <ele>1484.8</ele>
        <time>2020-08-29T09:38:33Z</time>
      </trkpt>
      <trkpt lat="42.74633" lon="0.49128">
        <ele>1484.36</ele>
        <time>2020-08-29T09:38:44Z</time>
      </trkpt>
      <trkpt lat="42.74646" lon="0.49127">
        <ele>1484.7</ele>
        <time>2020-08-29T09:38:56Z</time>
      </trkpt>
      <trkpt lat="42.74666" lon="0.49128">
        <ele>1485.8</ele>
        <time>2020-08-29T09:39:14Z</time>
      </trkpt>
      <trkpt lat="42.74684" lon="0.49129">
        <ele>1487.76</ele>
        <time>2020-08-29T09:39:35Z</time>
      </trkpt>
      <trkpt lat="42.74697" lon="0.49141">
        <ele>1488.97</ele>
        <time>2020-08-29T09:39:53Z</time>
      </trkpt>
      <trkpt lat="42.7471" lon="0.49154">
        <ele>1490.43</ele>
        <time>2020-08-29T09:40:10Z</time>
      </trkpt>
      <trkpt lat="42.74726" lon="0.49162">
        <ele>1492.82</ele>
        <time>2020-08-29T09:40:26Z</time>
      </trkpt>
      <trkpt lat="42.74727" lon="0.49162">
        <ele>1492.98</ele>
        <time>2020-08-29T09:40:27Z</time>
      </trkpt>
      <trkpt lat="42.74731" lon="0.49166">
        <ele>1493.54</ele>
        <time>2020-08-29T09:40:31Z</time>
      </trkpt>
      <trkpt lat="42.7474" lon="0.49179">
        <ele>1495.07</ele>
        <time>2020-08-29T09:40:43Z</time>
      </trkpt>
      <trkpt lat="42.7475" lon="0.49188">
        <ele>1493.77</ele>
        <time>2020-08-29T09:40:59Z</time>
      </trkpt>
      <trkpt lat="42.7475" lon="0.4919">
        <ele>1493.43</ele>
        <time>2020-08-29T09:41:02Z</time>
      </trkpt>
      <trkpt lat="42.74763" lon="0.492">
        <ele>1490.5</ele>
        <time>2020-08-29T09:41:21Z</time>
      </trkpt>
      <trkpt lat="42.74781" lon="0.49205">
        <ele>1487.82</ele>
        <time>2020-08-29T09:41:40Z</time>
      </trkpt>
      <trkpt lat="42.74794" lon="0.49218">
        <ele>1486.06</ele>
        <time>2020-08-29T09:41:59Z</time>
      </trkpt>
      <trkpt lat="42.74801" lon="0.49223">
        <ele>1485.12</ele>
        <time>2020-08-29T09:42:06Z</time>
      </trkpt>
      <trkpt lat="42.74807" lon="0.49226">
        <ele>1484.7</ele>
        <time>2020-08-29T09:42:10Z</time>
      </trkpt>
      <trkpt lat="42.74811" lon="0.4923">
        <ele>1484.02</ele>
        <time>2020-08-29T09:42:15Z</time>
      </trkpt>
      <trkpt lat="42.74814" lon="0.49246">
        <ele>1482.92</ele>
        <time>2020-08-29T09:42:31Z</time>
      </trkpt>
      <trkpt lat="42.74816" lon="0.49258">
        <ele>1482.84</ele>
        <time>2020-08-29T09:42:48Z</time>
      </trkpt>
      <trkpt lat="42.74817" lon="0.4926">
        <ele>1482.82</ele>
        <time>2020-08-29T09:42:50Z</time>
      </trkpt>
      <trkpt lat="42.74821" lon="0.49269">
        <ele>1483.75</ele>
        <time>2020-08-29T09:43:01Z</time>
      </trkpt>
      <trkpt lat="42.74829" lon="0.49285">
        <ele>1484.51</ele>
        <time>2020-08-29T09:43:20Z</time>
      </trkpt>
      <trkpt lat="42.7483" lon="0.49286">
        <ele>1484.52</ele>
        <time>2020-08-29T09:43:24Z</time>
      </trkpt>
      <trkpt lat="42.74838" lon="0.49293">
        <ele>1484.83</ele>
        <time>2020-08-29T09:43:35Z</time>
      </trkpt>
      <trkpt lat="42.74841" lon="0.49292">
        <ele>1484.84</ele>
        <time>2020-08-29T09:43:45Z</time>
      </trkpt>
      <trkpt lat="42.74839" lon="0.4929">
        <ele>1484.9</ele>
        <time>2020-08-29T09:44:11Z</time>
      </trkpt>
      <trkpt lat="42.7484" lon="0.49291">
        <ele>1485.07</ele>
        <time>2020-08-29T09:44:13Z</time>
      </trkpt>
      <trkpt lat="42.74846" lon="0.4929">
        <ele>1485.13</ele>
        <time>2020-08-29T09:44:18Z</time>
      </trkpt>
      <trkpt lat="42.74852" lon="0.49291">
        <ele>1485.11</ele>
        <time>2020-08-29T09:44:26Z</time>
      </trkpt>
      <trkpt lat="42.74856" lon="0.49305">
        <ele>1487.93</ele>
        <time>2020-08-29T09:44:47Z</time>
      </trkpt>
      <trkpt lat="42.7487" lon="0.49319">
        <ele>1490.64</ele>
        <time>2020-08-29T09:45:07Z</time>
      </trkpt>
      <trkpt lat="42.74873" lon="0.49334">
        <ele>1493.35</ele>
        <time>2020-08-29T09:45:24Z</time>
      </trkpt>
      <trkpt lat="42.74886" lon="0.49347">
        <ele>1494.77</ele>
        <time>2020-08-29T09:45:41Z</time>
      </trkpt>
      <trkpt lat="42.74897" lon="0.49365">
        <ele>1493.26</ele>
        <time>2020-08-29T09:45:59Z</time>
      </trkpt>
      <trkpt lat="42.74912" lon="0.49386">
        <ele>1492.39</ele>
        <time>2020-08-29T09:46:19Z</time>
      </trkpt>
      <trkpt lat="42.74922" lon="0.49406">
        <ele>1491.48</ele>
        <time>2020-08-29T09:46:34Z</time>
      </trkpt>
      <trkpt lat="42.74929" lon="0.49418">
        <ele>1489.8</ele>
        <time>2020-08-29T09:46:48Z</time>
      </trkpt>
      <trkpt lat="42.7493" lon="0.49419">
        <ele>1489.67</ele>
        <time>2020-08-29T09:46:49Z</time>
      </trkpt>
      <trkpt lat="42.74928" lon="0.49434">
        <ele>1487.53</ele>
        <time>2020-08-29T09:47:04Z</time>
      </trkpt>
      <trkpt lat="42.7493" lon="0.49447">
        <ele>1485.79</ele>
        <time>2020-08-29T09:47:19Z</time>
      </trkpt>
      <trkpt lat="42.74931" lon="0.49449">
        <ele>1485.49</ele>
        <time>2020-08-29T09:47:21Z</time>
      </trkpt>
      <trkpt lat="42.7494" lon="0.49447">
        <ele>1482.88</ele>
        <time>2020-08-29T09:47:39Z</time>
      </trkpt>
      <trkpt lat="42.74946" lon="0.49446">
        <ele>1479.98</ele>
        <time>2020-08-29T09:47:53Z</time>
      </trkpt>
      <trkpt lat="42.74944" lon="0.49459">
        <ele>1478.17</ele>
        <time>2020-08-29T09:48:05Z</time>
      </trkpt>
      <trkpt lat="42.74943" lon="0.49466">
        <ele>1476.89</ele>
        <time>2020-08-29T09:48:12Z</time>
      </trkpt>
      <trkpt lat="42.74945" lon="0.49484">
        <ele>1473.72</ele>
        <time>2020-08-29T09:48:31Z</time>
      </trkpt>
      <trkpt lat="42.74948" lon="0.49494">
        <ele>1470.98</ele>
        <time>2020-08-29T09:48:46Z</time>
      </trkpt>
      <trkpt lat="42.74949" lon="0.49483">
        <ele>1469.45</ele>
        <time>2020-08-29T09:49:05Z</time>
      </trkpt>
      <trkpt lat="42.7496" lon="0.49482">
        <ele>1466.93</ele>
        <time>2020-08-29T09:49:21Z</time>
      </trkpt>
      <trkpt lat="42.7496" lon="0.49486">
        <ele>1466.18</ele>
        <time>2020-08-29T09:49:26Z</time>
      </trkpt>
      <trkpt lat="42.74963" lon="0.49489">
        <ele>1466.03</ele>
        <time>2020-08-29T09:49:35Z</time>
      </trkpt>
      <trkpt lat="42.74961" lon="0.4949">
        <ele>1465.97</ele>
        <time>2020-08-29T09:49:40Z</time>
      </trkpt>
      <trkpt lat="42.74961" lon="0.49495">
        <ele>1464.8</ele>
        <time>2020-08-29T09:49:45Z</time>
      </trkpt>
      <trkpt lat="42.74964" lon="0.49507">
        <ele>1462.5</ele>
        <time>2020-08-29T09:49:58Z</time>
      </trkpt>
      <trkpt lat="42.74963" lon="0.49518">
        <ele>1459.3</ele>
        <time>2020-08-29T09:50:13Z</time>
      </trkpt>
      <trkpt lat="42.74963" lon="0.49519">
        <ele>1459.01</ele>
        <time>2020-08-29T09:50:14Z</time>
      </trkpt>
      <trkpt lat="42.74969" lon="0.49519">
        <ele>1455.83</ele>
        <time>2020-08-29T09:50:31Z</time>
      </trkpt>
      <trkpt lat="42.74978" lon="0.49501">
        <ele>1452.84</ele>
        <time>2020-08-29T09:50:48Z</time>
      </trkpt>
      <trkpt lat="42.74977" lon="0.49504">
        <ele>1452.1</ele>
        <time>2020-08-29T09:51:02Z</time>
      </trkpt>
      <trkpt lat="42.74977" lon="0.49505">
        <ele>1451.96</ele>
        <time>2020-08-29T09:51:16Z</time>
      </trkpt>
      <trkpt lat="42.74979" lon="0.49506">
        <ele>1451.71</ele>
        <time>2020-08-29T09:51:24Z</time>
      </trkpt>
      <trkpt lat="42.74982" lon="0.49508">
        <ele>1450.57</ele>
        <time>2020-08-29T09:51:31Z</time>
      </trkpt>
      <trkpt lat="42.74981" lon="0.49515">
        <ele>1448.76</ele>
        <time>2020-08-29T09:51:44Z</time>
      </trkpt>
      <trkpt lat="42.74983" lon="0.49501">
        <ele>1445.68</ele>
        <time>2020-08-29T09:52:02Z</time>
      </trkpt>
      <trkpt lat="42.74989" lon="0.49484">
        <ele>1443.29</ele>
        <time>2020-08-29T09:52:22Z</time>
      </trkpt>
      <trkpt lat="42.74989" lon="0.49481">
        <ele>1442.78</ele>
        <time>2020-08-29T09:52:25Z</time>
      </trkpt>
      <trkpt lat="42.74988" lon="0.4947">
        <ele>1441.12</ele>
        <time>2020-08-29T09:52:35Z</time>
      </trkpt>
      <trkpt lat="42.74985" lon="0.49464">
        <ele>1440.3</ele>
        <time>2020-08-29T09:52:42Z</time>
      </trkpt>
      <trkpt lat="42.7499" lon="0.49458">
        <ele>1438.99</ele>
        <time>2020-08-29T09:52:50Z</time>
      </trkpt>
      <trkpt lat="42.75" lon="0.49464">
        <ele>1436.48</ele>
        <time>2020-08-29T09:53:05Z</time>
      </trkpt>
      <trkpt lat="42.74999" lon="0.49479">
        <ele>1434.71</ele>
        <time>2020-08-29T09:53:19Z</time>
      </trkpt>
      <trkpt lat="42.75004" lon="0.49487">
        <ele>1431.71</ele>
        <time>2020-08-29T09:53:34Z</time>
      </trkpt>
      <trkpt lat="42.75009" lon="0.49495">
        <ele>1428.63</ele>
        <time>2020-08-29T09:53:48Z</time>
      </trkpt>
      <trkpt lat="42.75008" lon="0.49506">
        <ele>1425.57</ele>
        <time>2020-08-29T09:54:04Z</time>
      </trkpt>
      <trkpt lat="42.75008" lon="0.49508">
        <ele>1425.14</ele>
        <time>2020-08-29T09:54:07Z</time>
      </trkpt>
      <trkpt lat="42.75021" lon="0.49509">
        <ele>1423.02</ele>
        <time>2020-08-29T09:54:24Z</time>
      </trkpt>
      <trkpt lat="42.75033" lon="0.49496">
        <ele>1420.94</ele>
        <time>2020-08-29T09:54:44Z</time>
      </trkpt>
      <trkpt lat="42.75038" lon="0.49488">
        <ele>1419.3</ele>
        <time>2020-08-29T09:54:58Z</time>
      </trkpt>
      <trkpt lat="42.75048" lon="0.49473">
        <ele>1416.74</ele>
        <time>2020-08-29T09:55:19Z</time>
      </trkpt>
      <trkpt lat="42.7506" lon="0.49457">
        <ele>1413.7</ele>
        <time>2020-08-29T09:55:36Z</time>
      </trkpt>
      <trkpt lat="42.75066" lon="0.49447">
        <ele>1414.31</ele>
        <time>2020-08-29T09:55:47Z</time>
      </trkpt>
      <trkpt lat="42.75069" lon="0.49453">
        <ele>1413.97</ele>
        <time>2020-08-29T09:55:54Z</time>
      </trkpt>
      <trkpt lat="42.75066" lon="0.49467">
        <ele>1411.27</ele>
        <time>2020-08-29T09:56:10Z</time>
      </trkpt>
      <trkpt lat="42.75061" lon="0.49484">
        <ele>1408.24</ele>
        <time>2020-08-29T09:56:26Z</time>
      </trkpt>
      <trkpt lat="42.7506" lon="0.49488">
        <ele>1407.57</ele>
        <time>2020-08-29T09:56:29Z</time>
      </trkpt>
      <trkpt lat="42.7506" lon="0.49504">
        <ele>1404.37</ele>
        <time>2020-08-29T09:56:43Z</time>
      </trkpt>
      <trkpt lat="42.75059" lon="0.49513">
        <ele>1403.09</ele>
        <time>2020-08-29T09:56:49Z</time>
      </trkpt>
      <trkpt lat="42.75065" lon="0.49519">
        <ele>1401.07</ele>
        <time>2020-08-29T09:57:00Z</time>
      </trkpt>
      <trkpt lat="42.75075" lon="0.49516">
        <ele>1399.46</ele>
        <time>2020-08-29T09:57:14Z</time>
      </trkpt>
      <trkpt lat="42.75078" lon="0.49512">
        <ele>1398.07</ele>
        <time>2020-08-29T09:57:22Z</time>
      </trkpt>
      <trkpt lat="42.75089" lon="0.49515">
        <ele>1395.09</ele>
        <time>2020-08-29T09:57:38Z</time>
      </trkpt>
      <trkpt lat="42.75085" lon="0.49528">
        <ele>1391.92</ele>
        <time>2020-08-29T09:57:52Z</time>
      </trkpt>
      <trkpt lat="42.75086" lon="0.49536">
        <ele>1390.61</ele>
        <time>2020-08-29T09:57:59Z</time>
      </trkpt>
      <trkpt lat="42.75082" lon="0.49553">
        <ele>1388.31</ele>
        <time>2020-08-29T09:58:14Z</time>
      </trkpt>
      <trkpt lat="42.75073" lon="0.49568">
        <ele>1386.01</ele>
        <time>2020-08-29T09:58:31Z</time>
      </trkpt>
      <trkpt lat="42.7506" lon="0.49571">
        <ele>1385.21</ele>
        <time>2020-08-29T09:58:48Z</time>
      </trkpt>
      <trkpt lat="42.75048" lon="0.49587">
        <ele>1382.47</ele>
        <time>2020-08-29T09:59:07Z</time>
      </trkpt>
      <trkpt lat="42.75047" lon="0.49602">
        <ele>1379.79</ele>
        <time>2020-08-29T09:59:24Z</time>
      </trkpt>
      <trkpt lat="42.75043" lon="0.49622">
        <ele>1376.81</ele>
        <time>2020-08-29T09:59:41Z</time>
      </trkpt>
      <trkpt lat="42.75043" lon="0.49636">
        <ele>1375.18</ele>
        <time>2020-08-29T09:59:50Z</time>
      </trkpt>
      <trkpt lat="42.7505" lon="0.49659">
        <ele>1371.97</ele>
        <time>2020-08-29T10:00:07Z</time>
      </trkpt>
      <trkpt lat="42.75062" lon="0.49673">
        <ele>1368.94</ele>
        <time>2020-08-29T10:00:24Z</time>
      </trkpt>
      <trkpt lat="42.75068" lon="0.49677">
        <ele>1367.77</ele>
        <time>2020-08-29T10:00:30Z</time>
      </trkpt>
      <trkpt lat="42.75081" lon="0.49689">
        <ele>1365.72</ele>
        <time>2020-08-29T10:00:43Z</time>
      </trkpt>
      <trkpt lat="42.75088" lon="0.49706">
        <ele>1362.59</ele>
        <time>2020-08-29T10:00:57Z</time>
      </trkpt>
      <trkpt lat="42.75089" lon="0.49709">
        <ele>1362.25</ele>
        <time>2020-08-29T10:00:59Z</time>
      </trkpt>
      <trkpt lat="42.75092" lon="0.49711">
        <ele>1361.45</ele>
        <time>2020-08-29T10:01:02Z</time>
      </trkpt>
      <trkpt lat="42.75096" lon="0.4971">
        <ele>1360.63</ele>
        <time>2020-08-29T10:01:17Z</time>
      </trkpt>
      <trkpt lat="42.75097" lon="0.4971">
        <ele>1360.66</ele>
        <time>2020-08-29T10:01:18Z</time>
      </trkpt>
      <trkpt lat="42.751" lon="0.49702">
        <ele>1359.8</ele>
        <time>2020-08-29T10:01:46Z</time>
      </trkpt>
      <trkpt lat="42.75098" lon="0.49687">
        <ele>1357.03</ele>
        <time>2020-08-29T10:02:01Z</time>
      </trkpt>
      <trkpt lat="42.75099" lon="0.49682">
        <ele>1355.11</ele>
        <time>2020-08-29T10:02:08Z</time>
      </trkpt>
      <trkpt lat="42.75094" lon="0.49665">
        <ele>1352.77</ele>
        <time>2020-08-29T10:02:21Z</time>
      </trkpt>
      <trkpt lat="42.75105" lon="0.49677">
        <ele>1350.48</ele>
        <time>2020-08-29T10:02:35Z</time>
      </trkpt>
      <trkpt lat="42.75112" lon="0.49691">
        <ele>1348.78</ele>
        <time>2020-08-29T10:02:48Z</time>
      </trkpt>
      <trkpt lat="42.75113" lon="0.49693">
        <ele>1348.45</ele>
        <time>2020-08-29T10:02:50Z</time>
      </trkpt>
      <trkpt lat="42.75118" lon="0.49708">
        <ele>1345.73</ele>
        <time>2020-08-29T10:03:03Z</time>
      </trkpt>
      <trkpt lat="42.75123" lon="0.49712">
        <ele>1344.65</ele>
        <time>2020-08-29T10:03:10Z</time>
      </trkpt>
      <trkpt lat="42.75125" lon="0.49691">
        <ele>1342.35</ele>
        <time>2020-08-29T10:03:28Z</time>
      </trkpt>
      <trkpt lat="42.75125" lon="0.49676">
        <ele>1340.31</ele>
        <time>2020-08-29T10:03:43Z</time>
      </trkpt>
      <trkpt lat="42.7512" lon="0.49654">
        <ele>1337.49</ele>
        <time>2020-08-29T10:03:59Z</time>
      </trkpt>
      <trkpt lat="42.75127" lon="0.49663">
        <ele>1335.44</ele>
        <time>2020-08-29T10:04:11Z</time>
      </trkpt>
      <trkpt lat="42.7513" lon="0.4967">
        <ele>1334.3</ele>
        <time>2020-08-29T10:04:17Z</time>
      </trkpt>
      <trkpt lat="42.75132" lon="0.49681">
        <ele>1332.76</ele>
        <time>2020-08-29T10:04:24Z</time>
      </trkpt>
      <trkpt lat="42.75134" lon="0.49688">
        <ele>1331.98</ele>
        <time>2020-08-29T10:04:29Z</time>
      </trkpt>
      <trkpt lat="42.75136" lon="0.497">
        <ele>1330.51</ele>
        <time>2020-08-29T10:04:37Z</time>
      </trkpt>
      <trkpt lat="42.7514" lon="0.49706">
        <ele>1329.38</ele>
        <time>2020-08-29T10:04:43Z</time>
      </trkpt>
      <trkpt lat="42.75144" lon="0.497">
        <ele>1328</ele>
        <time>2020-08-29T10:04:49Z</time>
      </trkpt>
      <trkpt lat="42.75148" lon="0.49686">
        <ele>1325.94</ele>
        <time>2020-08-29T10:05:02Z</time>
      </trkpt>
      <trkpt lat="42.75145" lon="0.4967">
        <ele>1323.25</ele>
        <time>2020-08-29T10:05:17Z</time>
      </trkpt>
      <trkpt lat="42.75144" lon="0.4965">
        <ele>1320.79</ele>
        <time>2020-08-29T10:05:36Z</time>
      </trkpt>
      <trkpt lat="42.75148" lon="0.49645">
        <ele>1320.65</ele>
        <time>2020-08-29T10:05:58Z</time>
      </trkpt>
      <trkpt lat="42.75156" lon="0.49663">
        <ele>1317.81</ele>
        <time>2020-08-29T10:06:16Z</time>
      </trkpt>
      <trkpt lat="42.7516" lon="0.49669">
        <ele>1316.64</ele>
        <time>2020-08-29T10:06:21Z</time>
      </trkpt>
      <trkpt lat="42.75162" lon="0.49674">
        <ele>1315.77</ele>
        <time>2020-08-29T10:06:25Z</time>
      </trkpt>
      <trkpt lat="42.75169" lon="0.49692">
        <ele>1312.65</ele>
        <time>2020-08-29T10:06:40Z</time>
      </trkpt>
      <trkpt lat="42.75175" lon="0.49706">
        <ele>1309.44</ele>
        <time>2020-08-29T10:06:55Z</time>
      </trkpt>
      <trkpt lat="42.75175" lon="0.49721">
        <ele>1308.14</ele>
        <time>2020-08-29T10:07:05Z</time>
      </trkpt>
      <trkpt lat="42.75175" lon="0.49726">
        <ele>1307.85</ele>
        <time>2020-08-29T10:07:07Z</time>
      </trkpt>
      <trkpt lat="42.75177" lon="0.49737">
        <ele>1307.25</ele>
        <time>2020-08-29T10:07:19Z</time>
      </trkpt>
      <trkpt lat="42.75179" lon="0.49742">
        <ele>1306.82</ele>
        <time>2020-08-29T10:07:25Z</time>
      </trkpt>
      <trkpt lat="42.75183" lon="0.49751">
        <ele>1305.37</ele>
        <time>2020-08-29T10:07:32Z</time>
      </trkpt>
      <trkpt lat="42.7519" lon="0.49758">
        <ele>1303.77</ele>
        <time>2020-08-29T10:07:41Z</time>
      </trkpt>
      <trkpt lat="42.75198" lon="0.49767">
        <ele>1302.02</ele>
        <time>2020-08-29T10:07:53Z</time>
      </trkpt>
      <trkpt lat="42.75205" lon="0.49777">
        <ele>1300.23</ele>
        <time>2020-08-29T10:08:05Z</time>
      </trkpt>
      <trkpt lat="42.75206" lon="0.49781">
        <ele>1299.62</ele>
        <time>2020-08-29T10:08:08Z</time>
      </trkpt>
      <trkpt lat="42.75212" lon="0.49802">
        <ele>1296.91</ele>
        <time>2020-08-29T10:08:22Z</time>
      </trkpt>
      <trkpt lat="42.75213" lon="0.49804">
        <ele>1296.77</ele>
        <time>2020-08-29T10:08:23Z</time>
      </trkpt>
      <trkpt lat="42.7522" lon="0.49822">
        <ele>1294.42</ele>
        <time>2020-08-29T10:08:36Z</time>
      </trkpt>
      <trkpt lat="42.75227" lon="0.49827">
        <ele>1293.34</ele>
        <time>2020-08-29T10:08:42Z</time>
      </trkpt>
      <trkpt lat="42.75228" lon="0.49829">
        <ele>1293.22</ele>
        <time>2020-08-29T10:08:44Z</time>
      </trkpt>
      <trkpt lat="42.75239" lon="0.49843">
        <ele>1291.22</ele>
        <time>2020-08-29T10:09:00Z</time>
      </trkpt>
      <trkpt lat="42.75242" lon="0.49847">
        <ele>1290.54</ele>
        <time>2020-08-29T10:09:04Z</time>
      </trkpt>
      <trkpt lat="42.75248" lon="0.49854">
        <ele>1289.43</ele>
        <time>2020-08-29T10:09:11Z</time>
      </trkpt>
      <trkpt lat="42.75257" lon="0.49866">
        <ele>1287.78</ele>
        <time>2020-08-29T10:09:22Z</time>
      </trkpt>
      <trkpt lat="42.7526" lon="0.49868">
        <ele>1287.47</ele>
        <time>2020-08-29T10:09:25Z</time>
      </trkpt>
      <trkpt lat="42.75262" lon="0.49869">
        <ele>1287.18</ele>
        <time>2020-08-29T10:09:28Z</time>
      </trkpt>
      <trkpt lat="42.75279" lon="0.49882">
        <ele>1285.47</ele>
        <time>2020-08-29T10:09:44Z</time>
      </trkpt>
      <trkpt lat="42.75295" lon="0.49892">
        <ele>1282.68</ele>
        <time>2020-08-29T10:10:01Z</time>
      </trkpt>
      <trkpt lat="42.75302" lon="0.49897">
        <ele>1281.79</ele>
        <time>2020-08-29T10:10:10Z</time>
      </trkpt>
      <trkpt lat="42.75304" lon="0.49899">
        <ele>1281.51</ele>
        <time>2020-08-29T10:10:13Z</time>
      </trkpt>
      <trkpt lat="42.75313" lon="0.4991">
        <ele>1280.07</ele>
        <time>2020-08-29T10:10:26Z</time>
      </trkpt>
      <trkpt lat="42.75314" lon="0.49912">
        <ele>1279.13</ele>
        <time>2020-08-29T10:10:32Z</time>
      </trkpt>
      <trkpt lat="42.75316" lon="0.49916">
        <ele>1278.7</ele>
        <time>2020-08-29T10:10:35Z</time>
      </trkpt>
      <trkpt lat="42.75322" lon="0.49918">
        <ele>1277.49</ele>
        <time>2020-08-29T10:10:42Z</time>
      </trkpt>
      <trkpt lat="42.75324" lon="0.49925">
        <ele>1275.72</ele>
        <time>2020-08-29T10:10:52Z</time>
      </trkpt>
      <trkpt lat="42.75348" lon="0.49936">
        <ele>1272.67</ele>
        <time>2020-08-29T10:11:09Z</time>
      </trkpt>
      <trkpt lat="42.75358" lon="0.49943">
        <ele>1271.46</ele>
        <time>2020-08-29T10:11:19Z</time>
      </trkpt>
      <trkpt lat="42.75374" lon="0.49954">
        <ele>1269.18</ele>
        <time>2020-08-29T10:11:37Z</time>
      </trkpt>
      <trkpt lat="42.75382" lon="0.49962">
        <ele>1267.2</ele>
        <time>2020-08-29T10:11:55Z</time>
      </trkpt>
      <trkpt lat="42.75394" lon="0.49964">
        <ele>1266.18</ele>
        <time>2020-08-29T10:12:01Z</time>
      </trkpt>
      <trkpt lat="42.75401" lon="0.49965">
        <ele>1265.72</ele>
        <time>2020-08-29T10:12:10Z</time>
      </trkpt>
      <trkpt lat="42.75429" lon="0.49955">
        <ele>1262.75</ele>
        <time>2020-08-29T10:12:31Z</time>
      </trkpt>
      <trkpt lat="42.75451" lon="0.4995">
        <ele>1259.73</ele>
        <time>2020-08-29T10:12:51Z</time>
      </trkpt>
      <trkpt lat="42.75461" lon="0.49949">
        <ele>1258.77</ele>
        <time>2020-08-29T10:13:03Z</time>
      </trkpt>
      <trkpt lat="42.75468" lon="0.4995">
        <ele>1258.08</ele>
        <time>2020-08-29T10:13:07Z</time>
      </trkpt>
      <trkpt lat="42.75475" lon="0.49951">
        <ele>1257.25</ele>
        <time>2020-08-29T10:13:14Z</time>
      </trkpt>
      <trkpt lat="42.7548" lon="0.49951">
        <ele>1256.56</ele>
        <time>2020-08-29T10:13:18Z</time>
      </trkpt>
      <trkpt lat="42.75483" lon="0.49951">
        <ele>1256.11</ele>
        <time>2020-08-29T10:13:21Z</time>
      </trkpt>
      <trkpt lat="42.75489" lon="0.49953">
        <ele>1255.02</ele>
        <time>2020-08-29T10:13:26Z</time>
      </trkpt>
      <trkpt lat="42.75498" lon="0.4996">
        <ele>1253.17</ele>
        <time>2020-08-29T10:13:37Z</time>
      </trkpt>
      <trkpt lat="42.75502" lon="0.49961">
        <ele>1252.48</ele>
        <time>2020-08-29T10:13:41Z</time>
      </trkpt>
      <trkpt lat="42.75508" lon="0.49964">
        <ele>1251.83</ele>
        <time>2020-08-29T10:13:45Z</time>
      </trkpt>
      <trkpt lat="42.75525" lon="0.49971">
        <ele>1249.66</ele>
        <time>2020-08-29T10:14:02Z</time>
      </trkpt>
      <trkpt lat="42.75526" lon="0.49971">
        <ele>1249.66</ele>
        <time>2020-08-29T10:14:03Z</time>
      </trkpt>
      <trkpt lat="42.75533" lon="0.49974">
        <ele>1248.61</ele>
        <time>2020-08-29T10:14:09Z</time>
      </trkpt>
      <trkpt lat="42.75553" lon="0.49984">
        <ele>1245.64</ele>
        <time>2020-08-29T10:14:27Z</time>
      </trkpt>
      <trkpt lat="42.75554" lon="0.49985">
        <ele>1245.41</ele>
        <time>2020-08-29T10:14:28Z</time>
      </trkpt>
      <trkpt lat="42.75565" lon="0.49996">
        <ele>1243.39</ele>
        <time>2020-08-29T10:14:41Z</time>
      </trkpt>
      <trkpt lat="42.75575" lon="0.5001">
        <ele>1240.9</ele>
        <time>2020-08-29T10:14:56Z</time>
      </trkpt>
      <trkpt lat="42.7559" lon="0.50025">
        <ele>1238.85</ele>
        <time>2020-08-29T10:15:12Z</time>
      </trkpt>
      <trkpt lat="42.75598" lon="0.50041">
        <ele>1236.56</ele>
        <time>2020-08-29T10:15:28Z</time>
      </trkpt>
      <trkpt lat="42.75609" lon="0.50053">
        <ele>1235</ele>
        <time>2020-08-29T10:15:40Z</time>
      </trkpt>
      <trkpt lat="42.75616" lon="0.50068">
        <ele>1232.8</ele>
        <time>2020-08-29T10:15:54Z</time>
      </trkpt>
      <trkpt lat="42.75615" lon="0.50077">
        <ele>1231.41</ele>
        <time>2020-08-29T10:16:01Z</time>
      </trkpt>
      <trkpt lat="42.75618" lon="0.50082">
        <ele>1230.72</ele>
        <time>2020-08-29T10:16:04Z</time>
      </trkpt>
      <trkpt lat="42.75625" lon="0.50091">
        <ele>1229.44</ele>
        <time>2020-08-29T10:16:10Z</time>
      </trkpt>
      <trkpt lat="42.7563" lon="0.50094">
        <ele>1228.45</ele>
        <time>2020-08-29T10:16:15Z</time>
      </trkpt>
      <trkpt lat="42.75636" lon="0.50104">
        <ele>1226.64</ele>
        <time>2020-08-29T10:16:23Z</time>
      </trkpt>
      <trkpt lat="42.75643" lon="0.50108">
        <ele>1225.51</ele>
        <time>2020-08-29T10:16:29Z</time>
      </trkpt>
      <trkpt lat="42.7565" lon="0.50118">
        <ele>1224.12</ele>
        <time>2020-08-29T10:16:36Z</time>
      </trkpt>
      <trkpt lat="42.75668" lon="0.50132">
        <ele>1221.09</ele>
        <time>2020-08-29T10:16:54Z</time>
      </trkpt>
      <trkpt lat="42.75672" lon="0.50135">
        <ele>1220.21</ele>
        <time>2020-08-29T10:16:58Z</time>
      </trkpt>
      <trkpt lat="42.7569" lon="0.50144">
        <ele>1217.61</ele>
        <time>2020-08-29T10:17:14Z</time>
      </trkpt>
      <trkpt lat="42.75691" lon="0.50145">
        <ele>1217.58</ele>
        <time>2020-08-29T10:17:15Z</time>
      </trkpt>
      <trkpt lat="42.757" lon="0.50158">
        <ele>1215.56</ele>
        <time>2020-08-29T10:17:28Z</time>
      </trkpt>
      <trkpt lat="42.75717" lon="0.50171">
        <ele>1213.04</ele>
        <time>2020-08-29T10:17:45Z</time>
      </trkpt>
      <trkpt lat="42.75727" lon="0.50188">
        <ele>1210.97</ele>
        <time>2020-08-29T10:18:00Z</time>
      </trkpt>
      <trkpt lat="42.75733" lon="0.50196">
        <ele>1209.44</ele>
        <time>2020-08-29T10:18:08Z</time>
      </trkpt>
      <trkpt lat="42.75737" lon="0.5021">
        <ele>1207.96</ele>
        <time>2020-08-29T10:18:18Z</time>
      </trkpt>
      <trkpt lat="42.75739" lon="0.50211">
        <ele>1207.69</ele>
        <time>2020-08-29T10:18:20Z</time>
      </trkpt>
      <trkpt lat="42.7575" lon="0.50213">
        <ele>1206.49</ele>
        <time>2020-08-29T10:18:29Z</time>
      </trkpt>
      <trkpt lat="42.75757" lon="0.50212">
        <ele>1205.58</ele>
        <time>2020-08-29T10:18:35Z</time>
      </trkpt>
      <trkpt lat="42.75765" lon="0.50214">
        <ele>1203.98</ele>
        <time>2020-08-29T10:18:42Z</time>
      </trkpt>
      <trkpt lat="42.75784" lon="0.50225">
        <ele>1200.78</ele>
        <time>2020-08-29T10:19:00Z</time>
      </trkpt>
      <trkpt lat="42.75798" lon="0.50232">
        <ele>1198.8</ele>
        <time>2020-08-29T10:19:13Z</time>
      </trkpt>
      <trkpt lat="42.75814" lon="0.50233">
        <ele>1196.77</ele>
        <time>2020-08-29T10:19:27Z</time>
      </trkpt>
      <trkpt lat="42.75819" lon="0.50233">
        <ele>1196.09</ele>
        <time>2020-08-29T10:19:41Z</time>
      </trkpt>
      <trkpt lat="42.75821" lon="0.50234">
        <ele>1196.13</ele>
        <time>2020-08-29T10:19:46Z</time>
      </trkpt>
      <trkpt lat="42.75823" lon="0.50234">
        <ele>1195.6</ele>
        <time>2020-08-29T10:19:48Z</time>
      </trkpt>
      <trkpt lat="42.75829" lon="0.50236">
        <ele>1194.7</ele>
        <time>2020-08-29T10:19:53Z</time>
      </trkpt>
      <trkpt lat="42.7585" lon="0.50243">
        <ele>1191.91</ele>
        <time>2020-08-29T10:20:10Z</time>
      </trkpt>
      <trkpt lat="42.75874" lon="0.50244">
        <ele>1188.82</ele>
        <time>2020-08-29T10:20:30Z</time>
      </trkpt>
      <trkpt lat="42.75897" lon="0.50242">
        <ele>1185.75</ele>
        <time>2020-08-29T10:20:49Z</time>
      </trkpt>
      <trkpt lat="42.75914" lon="0.50243">
        <ele>1184.43</ele>
        <time>2020-08-29T10:21:06Z</time>
      </trkpt>
      <trkpt lat="42.75916" lon="0.50244">
        <ele>1184.12</ele>
        <time>2020-08-29T10:21:14Z</time>
      </trkpt>
      <trkpt lat="42.75933" lon="0.50258">
        <ele>1181.72</ele>
        <time>2020-08-29T10:21:31Z</time>
      </trkpt>
      <trkpt lat="42.75949" lon="0.50261">
        <ele>1179.71</ele>
        <time>2020-08-29T10:21:46Z</time>
      </trkpt>
      <trkpt lat="42.75965" lon="0.50249">
        <ele>1178.5</ele>
        <time>2020-08-29T10:22:03Z</time>
      </trkpt>
      <trkpt lat="42.75981" lon="0.50234">
        <ele>1177.07</ele>
        <time>2020-08-29T10:22:19Z</time>
      </trkpt>
      <trkpt lat="42.75995" lon="0.50216">
        <ele>1175.31</ele>
        <time>2020-08-29T10:22:35Z</time>
      </trkpt>
      <trkpt lat="42.76001" lon="0.50211">
        <ele>1174.83</ele>
        <time>2020-08-29T10:22:46Z</time>
      </trkpt>
      <trkpt lat="42.76004" lon="0.50209">
        <ele>1174.17</ele>
        <time>2020-08-29T10:22:49Z</time>
      </trkpt>
      <trkpt lat="42.76018" lon="0.50203">
        <ele>1173.04</ele>
        <time>2020-08-29T10:23:01Z</time>
      </trkpt>
      <trkpt lat="42.76025" lon="0.50206">
        <ele>1172.58</ele>
        <time>2020-08-29T10:23:07Z</time>
      </trkpt>
      <trkpt lat="42.76043" lon="0.5019">
        <ele>1171.77</ele>
        <time>2020-08-29T10:23:26Z</time>
      </trkpt>
      <trkpt lat="42.76061" lon="0.50179">
        <ele>1170.42</ele>
        <time>2020-08-29T10:23:45Z</time>
      </trkpt>
      <trkpt lat="42.76067" lon="0.50177">
        <ele>1170.18</ele>
        <time>2020-08-29T10:23:56Z</time>
      </trkpt>
      <trkpt lat="42.76069" lon="0.50178">
        <ele>1169.89</ele>
        <time>2020-08-29T10:23:58Z</time>
      </trkpt>
      <trkpt lat="42.76094" lon="0.50176">
        <ele>1168.67</ele>
        <time>2020-08-29T10:24:19Z</time>
      </trkpt>
      <trkpt lat="42.76115" lon="0.50178">
        <ele>1167.36</ele>
        <time>2020-08-29T10:24:38Z</time>
      </trkpt>
      <trkpt lat="42.7613" lon="0.50191">
        <ele>1166.4</ele>
        <time>2020-08-29T10:24:54Z</time>
      </trkpt>
      <trkpt lat="42.76146" lon="0.50183">
        <ele>1165.16</ele>
        <time>2020-08-29T10:25:11Z</time>
      </trkpt>
      <trkpt lat="42.76168" lon="0.50167">
        <ele>1163.26</ele>
        <time>2020-08-29T10:25:32Z</time>
      </trkpt>
      <trkpt lat="42.76186" lon="0.50162">
        <ele>1161.85</ele>
        <time>2020-08-29T10:25:48Z</time>
      </trkpt>
      <trkpt lat="42.76191" lon="0.50163">
        <ele>1161.5</ele>
        <time>2020-08-29T10:25:52Z</time>
      </trkpt>
      <trkpt lat="42.76215" lon="0.50163">
        <ele>1159.07</ele>
        <time>2020-08-29T10:26:13Z</time>
      </trkpt>
      <trkpt lat="42.76232" lon="0.50162">
        <ele>1157.29</ele>
        <time>2020-08-29T10:26:29Z</time>
      </trkpt>
      <trkpt lat="42.76246" lon="0.50164">
        <ele>1155.53</ele>
        <time>2020-08-29T10:26:41Z</time>
      </trkpt>
      <trkpt lat="42.76257" lon="0.50162">
        <ele>1154.67</ele>
        <time>2020-08-29T10:26:51Z</time>
      </trkpt>
      <trkpt lat="42.76269" lon="0.50162">
        <ele>1153.67</ele>
        <time>2020-08-29T10:27:01Z</time>
      </trkpt>
      <trkpt lat="42.76274" lon="0.50157">
        <ele>1152.84</ele>
        <time>2020-08-29T10:27:15Z</time>
      </trkpt>
      <trkpt lat="42.76274" lon="0.50162">
        <ele>1152.91</ele>
        <time>2020-08-29T10:27:45Z</time>
      </trkpt>
      <trkpt lat="42.76281" lon="0.50174">
        <ele>1151.71</ele>
        <time>2020-08-29T10:27:58Z</time>
      </trkpt>
      <trkpt lat="42.76285" lon="0.50177">
        <ele>1150.71</ele>
        <time>2020-08-29T10:28:02Z</time>
      </trkpt>
      <trkpt lat="42.76287" lon="0.50178">
        <ele>1150.38</ele>
        <time>2020-08-29T10:28:04Z</time>
      </trkpt>
      <trkpt lat="42.76292" lon="0.50181">
        <ele>1149.86</ele>
        <time>2020-08-29T10:28:08Z</time>
      </trkpt>
      <trkpt lat="42.76296" lon="0.50183">
        <ele>1149.31</ele>
        <time>2020-08-29T10:28:11Z</time>
      </trkpt>
      <trkpt lat="42.76301" lon="0.50183">
        <ele>1148.77</ele>
        <time>2020-08-29T10:28:15Z</time>
      </trkpt>
      <trkpt lat="42.76325" lon="0.50185">
        <ele>1146.12</ele>
        <time>2020-08-29T10:28:33Z</time>
      </trkpt>
      <trkpt lat="42.76331" lon="0.50186">
        <ele>1145.19</ele>
        <time>2020-08-29T10:28:39Z</time>
      </trkpt>
      <trkpt lat="42.76336" lon="0.50187">
        <ele>1144.61</ele>
        <time>2020-08-29T10:28:44Z</time>
      </trkpt>
      <trkpt lat="42.76347" lon="0.50187">
        <ele>1143.26</ele>
        <time>2020-08-29T10:28:53Z</time>
      </trkpt>
      <trkpt lat="42.76352" lon="0.50188">
        <ele>1142.85</ele>
        <time>2020-08-29T10:28:57Z</time>
      </trkpt>
      <trkpt lat="42.76362" lon="0.50188">
        <ele>1141.57</ele>
        <time>2020-08-29T10:29:04Z</time>
      </trkpt>
      <trkpt lat="42.76365" lon="0.50184">
        <ele>1141.11</ele>
        <time>2020-08-29T10:29:08Z</time>
      </trkpt>
      <trkpt lat="42.76368" lon="0.50181">
        <ele>1140.01</ele>
        <time>2020-08-29T10:29:14Z</time>
      </trkpt>
      <trkpt lat="42.76373" lon="0.50182">
        <ele>1139.05</ele>
        <time>2020-08-29T10:29:18Z</time>
      </trkpt>
      <trkpt lat="42.7639" lon="0.50189">
        <ele>1139.37</ele>
        <time>2020-08-29T10:29:30Z</time>
      </trkpt>
      <trkpt lat="42.76398" lon="0.50192">
        <ele>1138.88</ele>
        <time>2020-08-29T10:29:36Z</time>
      </trkpt>
      <trkpt lat="42.76404" lon="0.50185">
        <ele>1137.29</ele>
        <time>2020-08-29T10:29:43Z</time>
      </trkpt>
      <trkpt lat="42.76408" lon="0.50182">
        <ele>1137.27</ele>
        <time>2020-08-29T10:29:47Z</time>
      </trkpt>
      <trkpt lat="42.7642" lon="0.50163">
        <ele>1135.54</ele>
        <time>2020-08-29T10:30:04Z</time>
      </trkpt>
    </trkseg>
  </trk>
</gpx>